VIR133V EGLL-TAPA
Flight info
| Callsign | VIR133V |
|---|---|
| Flight time | 8h 13m |
| Altitude | 35000 |
| Route | GOGSI2F GOGSI N621 SAM M195 LORKU DCT COQUE DCT RIVAK/M082F360 DCT SIVIR DCT PASAS DCT 40N020W 3530N03000W/M082F380 31N040W 29N045W 27N050W 20N060W DCT AMTTO DCT ANU DCT |
| Aircraft | A339/H-SADE1E2E3GHIJ3J5M1P2RWXY/LB2D1 |
Departure
| Time | 2026-04-09 21:03 |
|---|---|
| Airport | London Heathrow Airport (EGLL) |
Arrival
| Time | 2026-04-10 05:16 |
|---|---|
| Airport | V. C. Bird International Airport (TAPA) |
| Time | Latitude | Longitude | Altitude | Speed | Heading |
|---|---|---|---|---|---|
| 2026-04-09 21:02 | 51.45337 | -0.78433 | 6007 ft | 245 kts | 272° |
| 2026-04-09 21:03 | 51.45334 | -0.81330 | 6422 ft | 247 kts | 271° |
| 2026-04-09 21:03 | 51.45050 | -0.84036 | 7033 ft | 250 kts | 250° |
| 2026-04-09 21:03 | 51.44008 | -0.86301 | 7616 ft | 261 kts | 225° |
| 2026-04-09 21:03 | 51.41830 | -0.88144 | 8361 ft | 274 kts | 208° |
| 2026-04-09 21:04 | 51.40632 | -0.88927 | 8702 ft | 277 kts | 210° |
| 2026-04-09 21:04 | 51.38883 | -0.90235 | 9279 ft | 277 kts | 215° |
| 2026-04-09 21:04 | 51.37198 | -0.91722 | 9856 ft | 278 kts | 218° |
| 2026-04-09 21:04 | 51.35546 | -0.93338 | 10409 ft | 279 kts | 221° |
| 2026-04-09 21:05 | 51.33889 | -0.95042 | 10604 ft | 294 kts | 221° |
| 2026-04-09 21:05 | 51.32131 | -0.96880 | 10722 ft | 312 kts | 222° |
| 2026-04-09 21:05 | 51.30269 | -0.98824 | 11000 ft | 323 kts | 221° |
| 2026-04-09 21:05 | 51.28385 | -1.00761 | 11646 ft | 321 kts | 221° |
| 2026-04-09 21:06 | 51.26515 | -1.02679 | 12313 ft | 318 kts | 222° |
| 2026-04-09 21:06 | 51.24663 | -1.04585 | 12986 ft | 316 kts | 222° |
| 2026-04-09 21:06 | 51.22822 | -1.06487 | 13643 ft | 314 kts | 222° |
| 2026-04-09 21:06 | 51.20993 | -1.08377 | 14233 ft | 313 kts | 222° |
| 2026-04-09 21:07 | 51.19162 | -1.10270 | 14747 ft | 314 kts | 222° |
| 2026-04-09 21:07 | 51.17332 | -1.12163 | 15225 ft | 315 kts | 222° |
| 2026-04-09 21:07 | 51.15483 | -1.14069 | 15730 ft | 316 kts | 221° |
| 2026-04-09 21:07 | 51.13631 | -1.15976 | 16241 ft | 317 kts | 221° |
| 2026-04-09 21:08 | 51.11773 | -1.17885 | 16765 ft | 318 kts | 221° |
| 2026-04-09 21:08 | 51.09916 | -1.19792 | 17259 ft | 319 kts | 221° |
| 2026-04-09 21:08 | 51.08049 | -1.21710 | 17749 ft | 320 kts | 221° |
| 2026-04-09 21:08 | 51.06178 | -1.23628 | 18239 ft | 321 kts | 221° |
| 2026-04-09 21:09 | 51.04300 | -1.25553 | 18701 ft | 322 kts | 221° |
| 2026-04-09 21:09 | 51.02412 | -1.27485 | 19077 ft | 325 kts | 220° |
| 2026-04-09 21:09 | 51.00496 | -1.29441 | 19464 ft | 327 kts | 220° |
| 2026-04-09 21:09 | 50.98595 | -1.31377 | 19859 ft | 330 kts | 220° |
| 2026-04-09 21:10 | 50.96661 | -1.33348 | 20263 ft | 332 kts | 220° |
| 2026-04-09 21:10 | 50.94711 | -1.35334 | 20657 ft | 334 kts | 220° |
| 2026-04-09 21:10 | 50.92759 | -1.37358 | 21052 ft | 336 kts | 221° |
| 2026-04-09 21:10 | 50.90803 | -1.39407 | 21458 ft | 338 kts | 221° |
| 2026-04-09 21:11 | 50.88833 | -1.41471 | 21853 ft | 341 kts | 221° |
| 2026-04-09 21:11 | 50.86842 | -1.43549 | 22196 ft | 344 kts | 221° |
| 2026-04-09 21:11 | 50.84831 | -1.45645 | 22498 ft | 349 kts | 221° |
| 2026-04-09 21:11 | 50.82798 | -1.47758 | 22915 ft | 351 kts | 221° |
| 2026-04-09 21:12 | 50.80749 | -1.49884 | 23311 ft | 353 kts | 220° |
| 2026-04-09 21:12 | 50.78689 | -1.52018 | 23690 ft | 356 kts | 220° |
| 2026-04-09 21:12 | 50.76603 | -1.54176 | 24058 ft | 359 kts | 220° |
| 2026-04-09 21:12 | 50.74505 | -1.56344 | 24382 ft | 362 kts | 221° |
| 2026-04-09 21:13 | 50.72391 | -1.58526 | 24704 ft | 364 kts | 221° |
| 2026-04-09 21:13 | 50.70262 | -1.60721 | 25032 ft | 367 kts | 221° |
| 2026-04-09 21:13 | 50.68117 | -1.62932 | 25359 ft | 370 kts | 221° |
| 2026-04-09 21:13 | 50.65983 | -1.65128 | 25670 ft | 372 kts | 221° |
| 2026-04-09 21:14 | 50.63806 | -1.67366 | 25984 ft | 375 kts | 221° |
| 2026-04-09 21:14 | 50.61608 | -1.69626 | 26077 ft | 382 kts | 221° |
| 2026-04-09 21:14 | 50.59372 | -1.71921 | 26398 ft | 384 kts | 221° |
| 2026-04-09 21:14 | 50.57125 | -1.74220 | 26721 ft | 386 kts | 221° |
| 2026-04-09 21:15 | 50.54864 | -1.76531 | 27039 ft | 389 kts | 221° |
| 2026-04-09 21:15 | 50.52585 | -1.78860 | 27343 ft | 391 kts | 221° |
| 2026-04-09 21:15 | 50.50293 | -1.81200 | 27644 ft | 394 kts | 221° |
| 2026-04-09 21:15 | 50.47988 | -1.83551 | 27943 ft | 396 kts | 221° |
| 2026-04-09 21:16 | 50.45669 | -1.85913 | 28234 ft | 399 kts | 222° |
| 2026-04-09 21:16 | 50.43328 | -1.88295 | 28493 ft | 402 kts | 222° |
| 2026-04-09 21:16 | 50.40978 | -1.90683 | 28807 ft | 404 kts | 222° |
| 2026-04-09 21:16 | 50.38609 | -1.93090 | 28931 ft | 409 kts | 222° |
| 2026-04-09 21:17 | 50.36206 | -1.95530 | 29180 ft | 412 kts | 221° |
| 2026-04-09 21:17 | 50.33794 | -1.97971 | 29465 ft | 414 kts | 221° |
| 2026-04-09 21:17 | 50.31368 | -2.00422 | 29728 ft | 416 kts | 222° |
| 2026-04-09 21:17 | 50.28923 | -2.02891 | 30005 ft | 419 kts | 222° |
| 2026-04-09 21:18 | 50.26469 | -2.05366 | 30273 ft | 421 kts | 222° |
| 2026-04-09 21:18 | 50.24001 | -2.07853 | 30519 ft | 423 kts | 221° |
| 2026-04-09 21:18 | 50.21499 | -2.10324 | 30784 ft | 426 kts | 221° |
| 2026-04-09 21:18 | 50.18979 | -2.12771 | 31045 ft | 428 kts | 221° |
| 2026-04-09 21:19 | 50.16439 | -2.15229 | 31233 ft | 430 kts | 220° |
| 2026-04-09 21:19 | 50.13886 | -2.17705 | 31404 ft | 434 kts | 220° |
| 2026-04-09 21:19 | 50.11349 | -2.20162 | 31706 ft | 435 kts | 220° |
| 2026-04-09 21:19 | 50.08776 | -2.22654 | 31973 ft | 436 kts | 220° |
| 2026-04-09 21:20 | 50.06195 | -2.25153 | 32227 ft | 438 kts | 220° |
| 2026-04-09 21:20 | 50.03602 | -2.27663 | 32502 ft | 439 kts | 220° |
| 2026-04-09 21:20 | 50.01002 | -2.30173 | 32722 ft | 440 kts | 220° |
| 2026-04-09 21:20 | 49.98398 | -2.32688 | 32925 ft | 442 kts | 220° |
| 2026-04-09 21:21 | 49.95780 | -2.35213 | 33120 ft | 443 kts | 220° |
| 2026-04-09 21:21 | 49.93153 | -2.37743 | 33286 ft | 443 kts | 220° |
| 2026-04-09 21:21 | 49.90534 | -2.40285 | 33466 ft | 444 kts | 220° |
| 2026-04-09 21:21 | 49.87951 | -2.42812 | 33599 ft | 444 kts | 220° |
| 2026-04-09 21:22 | 49.85334 | -2.45376 | 33739 ft | 445 kts | 220° |
| 2026-04-09 21:22 | 49.82715 | -2.47937 | 33899 ft | 445 kts | 220° |
| 2026-04-09 21:22 | 49.80097 | -2.50493 | 34078 ft | 444 kts | 220° |
| 2026-04-09 21:22 | 49.77485 | -2.53038 | 34274 ft | 443 kts | 220° |
| 2026-04-09 21:23 | 49.74874 | -2.55578 | 34430 ft | 443 kts | 220° |
| 2026-04-09 21:23 | 49.72267 | -2.58110 | 34577 ft | 442 kts | 220° |
| 2026-04-09 21:23 | 49.69659 | -2.60638 | 34631 ft | 444 kts | 220° |
| 2026-04-09 21:24 | 49.64425 | -2.65703 | 34888 ft | 444 kts | 220° |
| 2026-04-09 21:24 | 49.61807 | -2.68230 | 35031 ft | 443 kts | 221° |
| 2026-04-09 21:24 | 49.59196 | -2.70743 | 35175 ft | 442 kts | 221° |
| 2026-04-09 21:24 | 49.56587 | -2.73252 | 35337 ft | 441 kts | 221° |
| 2026-04-09 21:25 | 49.54021 | -2.75721 | 35488 ft | 440 kts | 221° |
| 2026-04-09 21:25 | 49.51425 | -2.78216 | 35641 ft | 439 kts | 221° |
| 2026-04-09 21:25 | 49.48830 | -2.80706 | 35743 ft | 439 kts | 221° |
| 2026-04-09 21:26 | 49.43630 | -2.85689 | 35957 ft | 440 kts | 221° |
| 2026-04-09 21:26 | 49.41036 | -2.88167 | 36113 ft | 439 kts | 221° |
| 2026-04-09 21:26 | 49.38445 | -2.90640 | 36256 ft | 438 kts | 221° |
| 2026-04-09 21:27 | 49.33268 | -2.95570 | 36296 ft | 437 kts | 221° |
| 2026-04-09 21:27 | 49.28075 | -3.00511 | 36299 ft | 441 kts | 221° |
| 2026-04-09 21:28 | 49.24607 | -3.03802 | 36301 ft | 443 kts | 221° |
| 2026-04-09 21:28 | 49.17540 | -3.10488 | 36288 ft | 448 kts | 221° |
| 2026-04-09 21:29 | 49.12256 | -3.15471 | 36304 ft | 450 kts | 221° |
| 2026-04-09 21:29 | 49.06912 | -3.20496 | 36306 ft | 451 kts | 220° |
| 2026-04-09 21:30 | 49.01556 | -3.25522 | 36305 ft | 452 kts | 220° |
| 2026-04-09 21:30 | 48.96179 | -3.30554 | 36299 ft | 455 kts | 220° |
| 2026-04-09 21:31 | 48.90773 | -3.35601 | 36296 ft | 456 kts | 220° |
| 2026-04-09 21:31 | 48.85358 | -3.40643 | 36293 ft | 457 kts | 220° |
| 2026-04-09 21:32 | 48.79965 | -3.45650 | 36292 ft | 457 kts | 220° |
| 2026-04-09 21:32 | 48.74528 | -3.50687 | 36292 ft | 458 kts | 220° |
| 2026-04-09 21:33 | 48.69088 | -3.55713 | 36290 ft | 458 kts | 220° |
| 2026-04-09 21:33 | 48.63628 | -3.60745 | 36293 ft | 459 kts | 220° |
| 2026-04-09 21:34 | 48.58167 | -3.65765 | 36281 ft | 460 kts | 220° |
| 2026-04-09 21:34 | 48.52685 | -3.70793 | 36314 ft | 461 kts | 220° |
| 2026-04-09 21:35 | 48.47190 | -3.75818 | 36319 ft | 462 kts | 220° |
| 2026-04-09 21:35 | 48.41683 | -3.80841 | 36318 ft | 463 kts | 220° |
| 2026-04-09 21:36 | 48.36163 | -3.85861 | 36287 ft | 464 kts | 220° |
| 2026-04-09 21:36 | 48.30627 | -3.90889 | 36298 ft | 466 kts | 220° |
| 2026-04-09 21:37 | 48.25059 | -3.95928 | 36299 ft | 468 kts | 219° |
| 2026-04-09 21:37 | 48.19482 | -4.00963 | 36307 ft | 469 kts | 219° |
| 2026-04-09 21:38 | 48.13917 | -4.05974 | 36296 ft | 469 kts | 219° |
| 2026-04-09 21:38 | 48.08311 | -4.11013 | 36316 ft | 470 kts | 219° |
| 2026-04-09 21:39 | 48.02689 | -4.16048 | 36319 ft | 471 kts | 219° |
| 2026-04-09 21:39 | 47.97054 | -4.21081 | 36317 ft | 472 kts | 219° |
| 2026-04-09 21:40 | 47.91404 | -4.26119 | 36323 ft | 472 kts | 219° |
| 2026-04-09 21:40 | 47.85756 | -4.31142 | 36332 ft | 474 kts | 219° |
| 2026-04-09 21:41 | 47.80115 | -4.36143 | 36317 ft | 475 kts | 218° |
| 2026-04-09 21:41 | 47.74434 | -4.41167 | 36308 ft | 476 kts | 218° |
| 2026-04-09 21:42 | 47.68736 | -4.46195 | 36296 ft | 476 kts | 218° |
| 2026-04-09 21:42 | 47.63030 | -4.51215 | 36299 ft | 477 kts | 218° |
| 2026-04-09 21:43 | 47.57311 | -4.56234 | 36306 ft | 478 kts | 218° |
| 2026-04-09 21:43 | 47.51587 | -4.61243 | 36306 ft | 478 kts | 218° |
| 2026-04-09 21:44 | 47.45856 | -4.66250 | 36306 ft | 479 kts | 218° |
| 2026-04-09 21:44 | 47.40107 | -4.71256 | 36314 ft | 480 kts | 218° |
| 2026-04-09 21:45 | 47.34388 | -4.76223 | 36314 ft | 480 kts | 218° |
| 2026-04-09 21:45 | 47.28618 | -4.81222 | 36317 ft | 481 kts | 218° |
| 2026-04-09 21:46 | 47.22842 | -4.86216 | 36308 ft | 482 kts | 217° |
| 2026-04-09 21:46 | 47.17059 | -4.91201 | 36312 ft | 482 kts | 217° |
| 2026-04-09 21:47 | 47.11333 | -4.96310 | 36318 ft | 476 kts | 224° |
| 2026-04-09 21:47 | 47.06791 | -5.03065 | 36298 ft | 458 kts | 242° |
| 2026-04-09 21:48 | 47.03799 | -5.11115 | 36319 ft | 451 kts | 250° |
| 2026-04-09 21:48 | 47.01018 | -5.19376 | 36320 ft | 453 kts | 250° |
| 2026-04-09 21:49 | 46.98197 | -5.27639 | 36328 ft | 454 kts | 249° |
| 2026-04-09 21:49 | 46.95364 | -5.35896 | 36329 ft | 454 kts | 249° |
| 2026-04-09 21:50 | 46.92518 | -5.44169 | 36330 ft | 455 kts | 249° |
| 2026-04-09 21:50 | 46.89663 | -5.52445 | 36330 ft | 456 kts | 249° |
| 2026-04-09 21:51 | 46.87282 | -5.59325 | 36330 ft | 456 kts | 249° |
| 2026-04-09 21:51 | 46.83944 | -5.68941 | 36330 ft | 456 kts | 249° |
| 2026-04-09 21:52 | 46.81536 | -5.75857 | 36333 ft | 457 kts | 249° |
| 2026-04-09 21:52 | 46.78648 | -5.84127 | 36333 ft | 458 kts | 249° |
| 2026-04-09 21:53 | 46.75747 | -5.92409 | 36334 ft | 458 kts | 249° |
| 2026-04-09 21:53 | 46.72858 | -6.00625 | 36334 ft | 459 kts | 249° |
| 2026-04-09 21:54 | 46.69941 | -6.08901 | 36339 ft | 459 kts | 249° |
| 2026-04-09 21:54 | 46.67017 | -6.17165 | 36344 ft | 459 kts | 249° |
| 2026-04-09 21:55 | 46.64086 | -6.25427 | 36342 ft | 459 kts | 249° |
| 2026-04-09 21:55 | 46.61145 | -6.33691 | 36347 ft | 460 kts | 249° |
| 2026-04-09 21:56 | 46.58197 | -6.41951 | 36344 ft | 460 kts | 249° |
| 2026-04-09 21:56 | 46.55239 | -6.50210 | 36346 ft | 460 kts | 249° |
| 2026-04-09 21:57 | 46.52278 | -6.58453 | 36346 ft | 461 kts | 249° |
| 2026-04-09 21:57 | 46.49305 | -6.66705 | 36346 ft | 461 kts | 249° |
| 2026-04-09 21:58 | 46.46346 | -6.74893 | 36346 ft | 461 kts | 249° |
| 2026-04-09 21:58 | 46.43359 | -6.83134 | 36346 ft | 461 kts | 248° |
| 2026-04-09 21:59 | 46.40368 | -6.91358 | 36362 ft | 461 kts | 249° |
| 2026-04-09 21:59 | 46.37367 | -6.99584 | 36359 ft | 462 kts | 248° |
| 2026-04-09 22:00 | 46.34359 | -7.07808 | 36356 ft | 462 kts | 248° |
| 2026-04-09 22:00 | 46.31358 | -7.15987 | 36353 ft | 463 kts | 248° |
| 2026-04-09 22:01 | 46.28333 | -7.24205 | 36356 ft | 463 kts | 248° |
| 2026-04-09 22:01 | 46.25297 | -7.32429 | 36353 ft | 464 kts | 248° |
| 2026-04-09 22:02 | 46.22250 | -7.40658 | 36353 ft | 465 kts | 248° |
| 2026-04-09 22:02 | 46.19195 | -7.48882 | 36354 ft | 465 kts | 248° |
| 2026-04-09 22:03 | 46.16134 | -7.57097 | 36355 ft | 465 kts | 248° |
| 2026-04-09 22:03 | 46.13064 | -7.65310 | 36355 ft | 465 kts | 248° |
| 2026-04-09 22:04 | 46.09983 | -7.73532 | 36354 ft | 466 kts | 248° |
| 2026-04-09 22:04 | 46.06895 | -7.81747 | 36358 ft | 467 kts | 248° |
| 2026-04-09 22:05 | 46.03794 | -7.89970 | 36357 ft | 468 kts | 248° |
| 2026-04-09 22:05 | 46.01092 | -7.98392 | 36354 ft | 458 kts | 259° |
| 2026-04-09 22:05 | 46.00345 | -8.02808 | 36357 ft | 452 kts | 266° |
| 2026-04-09 22:06 | 46.00005 | -8.11716 | 36358 ft | 444 kts | 276° |
| 2026-04-09 22:06 | 46.00052 | -8.20554 | 36359 ft | 445 kts | 275° |
| 2026-04-09 22:07 | 46.00064 | -8.29460 | 36360 ft | 445 kts | 275° |
| 2026-04-09 22:07 | 46.00065 | -8.38368 | 36360 ft | 445 kts | 275° |
| 2026-04-09 22:08 | 46.00060 | -8.47279 | 36363 ft | 446 kts | 275° |
| 2026-04-09 22:08 | 46.00049 | -8.56194 | 36361 ft | 446 kts | 275° |
| 2026-04-09 22:09 | 46.00031 | -8.65110 | 36363 ft | 446 kts | 275° |
| 2026-04-09 22:09 | 45.99719 | -8.74054 | 36358 ft | 451 kts | 268° |
| 2026-04-09 22:10 | 45.98332 | -8.82920 | 36363 ft | 459 kts | 258° |
| 2026-04-09 22:10 | 45.96421 | -8.91677 | 36366 ft | 459 kts | 259° |
| 2026-04-09 22:11 | 45.94545 | -9.00440 | 36366 ft | 459 kts | 259° |
| 2026-04-09 22:11 | 45.92668 | -9.09164 | 36367 ft | 459 kts | 259° |
| 2026-04-09 22:12 | 45.90769 | -9.17924 | 36369 ft | 459 kts | 259° |
| 2026-04-09 22:12 | 45.88862 | -9.26685 | 36372 ft | 460 kts | 259° |
| 2026-04-09 22:13 | 45.86948 | -9.35441 | 36375 ft | 460 kts | 259° |
| 2026-04-09 22:13 | 45.85023 | -9.44207 | 36369 ft | 460 kts | 259° |
| 2026-04-09 22:14 | 45.83094 | -9.52954 | 36364 ft | 460 kts | 259° |
| 2026-04-09 22:14 | 45.81173 | -9.61632 | 36372 ft | 460 kts | 259° |
| 2026-04-09 22:15 | 45.79233 | -9.70358 | 36369 ft | 460 kts | 258° |
| 2026-04-09 22:15 | 45.77287 | -9.79079 | 36376 ft | 460 kts | 258° |
| 2026-04-09 22:16 | 45.75331 | -9.87804 | 36368 ft | 459 kts | 258° |
| 2026-04-09 22:16 | 45.73370 | -9.96517 | 36360 ft | 459 kts | 258° |
| 2026-04-09 22:17 | 45.71404 | -10.05219 | 36361 ft | 461 kts | 258° |
| 2026-04-09 22:17 | 45.69422 | -10.13960 | 36363 ft | 462 kts | 258° |
| 2026-04-09 22:18 | 45.67430 | -10.22702 | 36367 ft | 462 kts | 258° |
| 2026-04-09 22:18 | 45.65441 | -10.31392 | 36374 ft | 462 kts | 258° |
| 2026-04-09 22:19 | 45.63436 | -10.40120 | 36376 ft | 462 kts | 258° |
| 2026-04-09 22:19 | 45.61422 | -10.48855 | 36376 ft | 462 kts | 258° |
| 2026-04-09 22:20 | 45.59406 | -10.57563 | 36373 ft | 462 kts | 258° |
| 2026-04-09 22:20 | 45.57380 | -10.66276 | 36377 ft | 461 kts | 258° |
| 2026-04-09 22:21 | 45.55351 | -10.74970 | 36377 ft | 461 kts | 258° |
| 2026-04-09 22:21 | 45.53320 | -10.83639 | 36378 ft | 461 kts | 258° |
| 2026-04-09 22:22 | 45.51283 | -10.92299 | 36379 ft | 461 kts | 258° |
| 2026-04-09 22:22 | 45.49241 | -11.00948 | 36382 ft | 460 kts | 258° |
| 2026-04-09 22:23 | 45.47208 | -11.09522 | 36382 ft | 459 kts | 258° |
| 2026-04-09 22:23 | 45.45157 | -11.18140 | 36378 ft | 459 kts | 258° |
| 2026-04-09 22:24 | 45.43098 | -11.26760 | 36383 ft | 459 kts | 258° |
| 2026-04-09 22:24 | 45.41035 | -11.35360 | 36385 ft | 459 kts | 258° |
| 2026-04-09 22:25 | 45.38965 | -11.43954 | 36378 ft | 459 kts | 258° |
| 2026-04-09 22:25 | 45.36890 | -11.52545 | 36377 ft | 460 kts | 258° |
| 2026-04-09 22:26 | 45.34804 | -11.61142 | 36383 ft | 460 kts | 257° |
| 2026-04-09 22:26 | 45.32710 | -11.69741 | 36377 ft | 460 kts | 257° |
| 2026-04-09 22:27 | 45.30620 | -11.78286 | 36385 ft | 461 kts | 257° |
| 2026-04-09 22:27 | 45.28511 | -11.86883 | 36384 ft | 461 kts | 257° |
| 2026-04-09 22:28 | 45.26386 | -11.95507 | 36384 ft | 461 kts | 257° |
| 2026-04-09 22:28 | 45.24274 | -12.04048 | 36386 ft | 461 kts | 257° |
| 2026-04-09 22:29 | 45.22143 | -12.12634 | 36387 ft | 462 kts | 257° |
| 2026-04-09 22:29 | 45.20002 | -12.21228 | 36387 ft | 462 kts | 257° |
| 2026-04-09 22:30 | 45.17856 | -12.29806 | 36389 ft | 462 kts | 257° |
| 2026-04-09 22:30 | 45.15700 | -12.38397 | 36390 ft | 462 kts | 257° |
| 2026-04-09 22:31 | 45.13542 | -12.46959 | 36386 ft | 461 kts | 257° |
| 2026-04-09 22:31 | 45.11379 | -12.55512 | 36387 ft | 461 kts | 257° |
| 2026-04-09 22:32 | 45.09222 | -12.64011 | 36387 ft | 461 kts | 257° |
| 2026-04-09 22:32 | 45.07046 | -12.72553 | 36389 ft | 461 kts | 257° |
| 2026-04-09 22:33 | 45.04862 | -12.81092 | 36384 ft | 461 kts | 257° |
| 2026-04-09 22:33 | 45.02677 | -12.89615 | 36387 ft | 462 kts | 257° |
| 2026-04-09 22:34 | 45.00137 | -12.98018 | 36388 ft | 471 kts | 248° |
| 2026-04-09 22:34 | 44.96404 | -13.05751 | 36392 ft | 483 kts | 236° |
| 2026-04-09 22:35 | 44.91901 | -13.12780 | 36389 ft | 485 kts | 235° |
| 2026-04-09 22:35 | 44.87403 | -13.19871 | 36390 ft | 485 kts | 235° |
| 2026-04-09 22:36 | 44.82904 | -13.26975 | 36387 ft | 485 kts | 235° |
| 2026-04-09 22:36 | 44.78401 | -13.34064 | 36392 ft | 486 kts | 235° |
| 2026-04-09 22:37 | 44.73886 | -13.41153 | 36387 ft | 487 kts | 235° |
| 2026-04-09 22:37 | 44.69384 | -13.48197 | 36390 ft | 487 kts | 235° |
| 2026-04-09 22:38 | 44.64842 | -13.55281 | 36387 ft | 487 kts | 234° |
| 2026-04-09 22:38 | 44.61064 | -13.61157 | 36390 ft | 488 kts | 234° |
| 2026-04-09 22:39 | 44.56509 | -13.68226 | 36379 ft | 488 kts | 234° |
| 2026-04-09 22:39 | 44.51951 | -13.75282 | 36390 ft | 488 kts | 234° |
| 2026-04-09 22:40 | 44.47381 | -13.82340 | 36395 ft | 489 kts | 234° |
| 2026-04-09 22:40 | 44.42801 | -13.89395 | 36387 ft | 490 kts | 234° |
| 2026-04-09 22:41 | 44.38207 | -13.96453 | 36392 ft | 490 kts | 234° |
| 2026-04-09 22:41 | 44.33612 | -14.03495 | 36387 ft | 490 kts | 234° |
| 2026-04-09 22:42 | 44.29037 | -14.10492 | 36373 ft | 492 kts | 234° |
| 2026-04-09 22:42 | 44.24410 | -14.17548 | 36373 ft | 493 kts | 234° |
| 2026-04-09 22:43 | 44.19765 | -14.24614 | 36397 ft | 493 kts | 234° |
| 2026-04-09 22:43 | 44.15123 | -14.31659 | 36395 ft | 493 kts | 234° |
| 2026-04-09 22:44 | 44.10474 | -14.38696 | 36398 ft | 494 kts | 234° |
| 2026-04-09 22:44 | 44.05820 | -14.45723 | 36387 ft | 494 kts | 234° |
| 2026-04-09 22:45 | 44.01183 | -14.52709 | 36395 ft | 495 kts | 233° |
| 2026-04-09 22:45 | 43.96491 | -14.59758 | 36391 ft | 496 kts | 233° |
| 2026-04-09 22:46 | 43.91805 | -14.66780 | 36394 ft | 496 kts | 233° |
| 2026-04-09 22:46 | 43.87114 | -14.73793 | 36394 ft | 496 kts | 233° |
| 2026-04-09 22:47 | 43.82412 | -14.80804 | 36398 ft | 496 kts | 233° |
| 2026-04-09 22:47 | 43.77742 | -14.87751 | 36395 ft | 496 kts | 233° |
| 2026-04-09 22:48 | 43.73030 | -14.94742 | 36378 ft | 495 kts | 233° |
| 2026-04-09 22:48 | 43.68337 | -15.01688 | 36395 ft | 494 kts | 233° |
| 2026-04-09 22:49 | 43.63646 | -15.08614 | 36396 ft | 493 kts | 233° |
| 2026-04-09 22:49 | 43.58957 | -15.15522 | 36391 ft | 493 kts | 233° |
| 2026-04-09 22:50 | 43.54261 | -15.22423 | 36397 ft | 494 kts | 233° |
| 2026-04-09 22:50 | 43.49579 | -15.29286 | 36395 ft | 494 kts | 233° |
| 2026-04-09 22:51 | 43.44861 | -15.36184 | 36400 ft | 495 kts | 232° |
| 2026-04-09 22:51 | 43.40130 | -15.43084 | 36398 ft | 495 kts | 232° |
| 2026-04-09 22:52 | 43.35393 | -15.49976 | 36392 ft | 496 kts | 232° |
| 2026-04-09 22:52 | 43.30653 | -15.56856 | 36395 ft | 497 kts | 232° |
| 2026-04-09 22:53 | 43.25887 | -15.63757 | 36395 ft | 497 kts | 232° |
| 2026-04-09 22:53 | 43.21153 | -15.70593 | 36397 ft | 497 kts | 232° |
| 2026-04-09 22:54 | 43.16391 | -15.77455 | 36396 ft | 497 kts | 232° |
| 2026-04-09 22:54 | 43.11615 | -15.84321 | 36395 ft | 497 kts | 232° |
| 2026-04-09 22:55 | 43.06836 | -15.91175 | 36398 ft | 498 kts | 232° |
| 2026-04-09 22:55 | 43.02038 | -15.98039 | 36404 ft | 499 kts | 232° |
| 2026-04-09 22:56 | 42.97233 | -16.04894 | 36394 ft | 499 kts | 232° |
| 2026-04-09 22:56 | 42.92422 | -16.11743 | 36418 ft | 499 kts | 232° |
| 2026-04-09 22:57 | 42.87644 | -16.18528 | 36414 ft | 499 kts | 232° |
| 2026-04-09 22:57 | 42.82829 | -16.25352 | 36412 ft | 500 kts | 232° |
| 2026-04-09 22:58 | 42.77993 | -16.32187 | 36390 ft | 502 kts | 232° |
| 2026-04-09 22:58 | 42.73144 | -16.39022 | 36402 ft | 501 kts | 232° |
| 2026-04-09 22:59 | 42.68304 | -16.45829 | 36403 ft | 501 kts | 232° |
| 2026-04-09 22:59 | 42.63453 | -16.52638 | 36406 ft | 500 kts | 232° |
| 2026-04-09 23:00 | 42.58637 | -16.59382 | 36408 ft | 501 kts | 231° |
| 2026-04-09 23:00 | 42.53771 | -16.66177 | 36408 ft | 502 kts | 231° |
| 2026-04-09 23:01 | 42.48892 | -16.72974 | 36402 ft | 502 kts | 231° |
| 2026-04-09 23:01 | 42.44024 | -16.79739 | 36411 ft | 502 kts | 231° |
| 2026-04-09 23:02 | 42.39137 | -16.86516 | 36406 ft | 502 kts | 231° |
| 2026-04-09 23:02 | 42.34250 | -16.93278 | 36407 ft | 503 kts | 231° |
| 2026-04-09 23:03 | 42.29363 | -17.00023 | 36405 ft | 504 kts | 231° |
| 2026-04-09 23:03 | 42.24442 | -17.06798 | 36403 ft | 504 kts | 231° |
| 2026-04-09 23:04 | 42.19530 | -17.13543 | 36411 ft | 504 kts | 231° |
| 2026-04-09 23:04 | 42.14652 | -17.20229 | 36414 ft | 503 kts | 231° |
| 2026-04-09 23:05 | 42.09734 | -17.26953 | 36409 ft | 504 kts | 231° |
| 2026-04-09 23:05 | 42.04798 | -17.33687 | 36412 ft | 505 kts | 231° |
| 2026-04-09 23:06 | 41.99855 | -17.40413 | 36396 ft | 505 kts | 231° |
| 2026-04-09 23:06 | 41.94903 | -17.47135 | 36408 ft | 505 kts | 231° |
| 2026-04-09 23:07 | 41.87508 | -17.57144 | 36412 ft | 505 kts | 231° |
| 2026-04-09 23:08 | 41.82549 | -17.63839 | 36413 ft | 506 kts | 231° |
| 2026-04-09 23:08 | 41.77577 | -17.70534 | 36409 ft | 507 kts | 230° |
| 2026-04-09 23:09 | 41.72599 | -17.77219 | 36411 ft | 507 kts | 230° |
| 2026-04-09 23:09 | 41.67620 | -17.83893 | 36409 ft | 506 kts | 230° |
| 2026-04-09 23:10 | 41.62669 | -17.90513 | 36411 ft | 506 kts | 230° |
| 2026-04-09 23:10 | 41.57687 | -17.97161 | 36412 ft | 507 kts | 230° |
| 2026-04-09 23:11 | 41.52685 | -18.03819 | 36414 ft | 508 kts | 230° |
| 2026-04-09 23:11 | 41.47678 | -18.10466 | 36406 ft | 508 kts | 230° |
| 2026-04-09 23:12 | 41.42669 | -18.17103 | 36420 ft | 507 kts | 230° |
| 2026-04-09 23:12 | 41.37653 | -18.23733 | 36419 ft | 507 kts | 230° |
| 2026-04-09 23:13 | 41.32644 | -18.30338 | 36419 ft | 507 kts | 230° |
| 2026-04-09 23:13 | 41.27669 | -18.36885 | 36417 ft | 507 kts | 230° |
| 2026-04-09 23:14 | 41.22645 | -18.43480 | 36418 ft | 507 kts | 230° |
| 2026-04-09 23:14 | 41.17617 | -18.50065 | 36420 ft | 506 kts | 230° |
| 2026-04-09 23:15 | 41.12631 | -18.56581 | 36420 ft | 506 kts | 230° |
| 2026-04-09 23:15 | 41.07616 | -18.63120 | 36414 ft | 506 kts | 230° |
| 2026-04-09 23:16 | 41.02587 | -18.69663 | 36420 ft | 506 kts | 230° |
| 2026-04-09 23:16 | 40.97554 | -18.76195 | 36421 ft | 507 kts | 230° |
| 2026-04-09 23:17 | 40.92499 | -18.82742 | 36415 ft | 507 kts | 230° |
| 2026-04-09 23:17 | 40.87460 | -18.89251 | 36584 ft | 504 kts | 230° |
| 2026-04-09 23:17 | 40.84960 | -18.92474 | 36784 ft | 500 kts | 230° |
| 2026-04-09 23:18 | 40.82500 | -18.95642 | 36991 ft | 498 kts | 230° |
| 2026-04-09 23:18 | 40.80026 | -18.98827 | 37199 ft | 496 kts | 230° |
| 2026-04-09 23:18 | 40.77558 | -19.02001 | 37399 ft | 494 kts | 230° |
| 2026-04-09 23:18 | 40.75093 | -19.05167 | 37616 ft | 493 kts | 230° |
| 2026-04-09 23:19 | 40.72643 | -19.08311 | 37827 ft | 492 kts | 230° |
| 2026-04-09 23:19 | 40.70190 | -19.11455 | 38042 ft | 490 kts | 230° |
| 2026-04-09 23:19 | 40.67749 | -19.14578 | 38247 ft | 489 kts | 230° |
| 2026-04-09 23:19 | 40.65308 | -19.17699 | 38445 ft | 488 kts | 230° |
| 2026-04-09 23:20 | 40.62860 | -19.20830 | 38448 ft | 491 kts | 230° |
| 2026-04-09 23:20 | 40.57931 | -19.27120 | 38449 ft | 495 kts | 230° |
| 2026-04-09 23:21 | 40.52992 | -19.33405 | 38422 ft | 499 kts | 229° |
| 2026-04-09 23:21 | 40.47983 | -19.39765 | 38405 ft | 501 kts | 229° |
| 2026-04-09 23:22 | 40.42952 | -19.46137 | 38383 ft | 503 kts | 229° |
| 2026-04-09 23:22 | 40.37920 | -19.52497 | 38406 ft | 503 kts | 229° |
| 2026-04-09 23:23 | 40.32874 | -19.58862 | 38426 ft | 503 kts | 229° |
| 2026-04-09 23:23 | 40.27858 | -19.65177 | 38422 ft | 503 kts | 229° |
| 2026-04-09 23:24 | 40.22795 | -19.71537 | 38434 ft | 504 kts | 229° |
| 2026-04-09 23:24 | 40.17725 | -19.77896 | 38432 ft | 505 kts | 229° |
| 2026-04-09 23:25 | 40.12646 | -19.84255 | 38435 ft | 505 kts | 229° |
| 2026-04-09 23:25 | 40.07572 | -19.90595 | 38428 ft | 505 kts | 229° |
| 2026-04-09 23:26 | 40.02517 | -19.96947 | 38429 ft | 503 kts | 232° |
| 2026-04-09 23:26 | 39.98411 | -20.04167 | 38436 ft | 491 kts | 247° |
| 2026-04-09 23:27 | 39.95363 | -20.12010 | 38438 ft | 488 kts | 250° |
| 2026-04-09 23:27 | 39.92322 | -20.19946 | 38435 ft | 489 kts | 249° |
| 2026-04-09 23:28 | 39.89278 | -20.27862 | 38438 ft | 489 kts | 249° |
| 2026-04-09 23:28 | 39.86226 | -20.35782 | 38436 ft | 489 kts | 249° |
| 2026-04-09 23:29 | 39.83679 | -20.42375 | 38433 ft | 489 kts | 249° |
| 2026-04-09 23:29 | 39.80618 | -20.50281 | 38435 ft | 489 kts | 249° |
| 2026-04-09 23:30 | 39.77053 | -20.59458 | 38435 ft | 489 kts | 249° |
| 2026-04-09 23:30 | 39.73981 | -20.67334 | 38438 ft | 489 kts | 249° |
| 2026-04-09 23:31 | 39.71394 | -20.73947 | 38439 ft | 489 kts | 249° |
| 2026-04-09 23:31 | 39.68330 | -20.81761 | 38425 ft | 489 kts | 248° |
| 2026-04-09 23:32 | 39.65240 | -20.89623 | 38450 ft | 488 kts | 248° |
| 2026-04-09 23:32 | 39.62138 | -20.97489 | 38446 ft | 488 kts | 248° |
| 2026-04-09 23:33 | 39.59038 | -21.05332 | 38448 ft | 489 kts | 248° |
| 2026-04-09 23:33 | 39.55930 | -21.13177 | 38446 ft | 489 kts | 248° |
| 2026-04-09 23:34 | 39.52837 | -21.20964 | 38448 ft | 489 kts | 248° |
| 2026-04-09 23:34 | 39.49723 | -21.28781 | 38451 ft | 489 kts | 248° |
| 2026-04-09 23:35 | 39.46598 | -21.36605 | 38454 ft | 489 kts | 248° |
| 2026-04-09 23:35 | 39.43470 | -21.44417 | 38453 ft | 489 kts | 248° |
| 2026-04-09 23:36 | 39.40340 | -21.52216 | 38438 ft | 488 kts | 247° |
| 2026-04-09 23:36 | 39.37208 | -21.59998 | 38443 ft | 488 kts | 247° |
| 2026-04-09 23:37 | 39.34092 | -21.67722 | 38466 ft | 487 kts | 247° |
| 2026-04-09 23:37 | 39.30953 | -21.75482 | 38475 ft | 487 kts | 247° |
| 2026-04-09 23:38 | 39.27813 | -21.83230 | 38470 ft | 486 kts | 247° |
| 2026-04-09 23:38 | 39.24666 | -21.90970 | 38458 ft | 486 kts | 247° |
| 2026-04-09 23:39 | 39.21523 | -21.98681 | 38461 ft | 486 kts | 247° |
| 2026-04-09 23:39 | 39.18373 | -22.06390 | 38462 ft | 486 kts | 246° |
| 2026-04-09 23:40 | 39.15216 | -22.14098 | 38457 ft | 487 kts | 246° |
| 2026-04-09 23:40 | 39.12045 | -22.21821 | 38465 ft | 487 kts | 246° |
| 2026-04-09 23:41 | 39.08891 | -22.29482 | 38469 ft | 487 kts | 246° |
| 2026-04-09 23:41 | 39.05711 | -22.37188 | 38466 ft | 487 kts | 246° |
| 2026-04-09 23:42 | 39.02526 | -22.44886 | 38465 ft | 487 kts | 246° |
| 2026-04-09 23:42 | 38.99339 | -22.52572 | 38463 ft | 487 kts | 246° |
| 2026-04-09 23:43 | 38.96149 | -22.60244 | 38468 ft | 486 kts | 246° |
| 2026-04-09 23:43 | 38.92975 | -22.67858 | 38468 ft | 486 kts | 246° |
| 2026-04-09 23:44 | 38.89776 | -22.75514 | 38471 ft | 486 kts | 246° |
| 2026-04-09 23:44 | 38.86574 | -22.83162 | 38469 ft | 485 kts | 245° |
| 2026-04-09 23:45 | 38.83374 | -22.90781 | 38471 ft | 485 kts | 245° |
| 2026-04-09 23:45 | 38.80170 | -22.98392 | 38473 ft | 485 kts | 245° |
| 2026-04-09 23:46 | 38.76964 | -23.05992 | 38476 ft | 485 kts | 245° |
| 2026-04-09 23:46 | 38.73750 | -23.13593 | 38478 ft | 485 kts | 245° |
| 2026-04-09 23:47 | 38.70532 | -23.21181 | 38478 ft | 485 kts | 245° |
| 2026-04-09 23:47 | 38.67325 | -23.28725 | 38481 ft | 485 kts | 245° |
| 2026-04-09 23:48 | 38.64094 | -23.36309 | 38481 ft | 485 kts | 245° |
| 2026-04-09 23:48 | 38.60863 | -23.43876 | 38463 ft | 485 kts | 245° |
| 2026-04-09 23:49 | 38.57622 | -23.51446 | 38486 ft | 484 kts | 245° |
| 2026-04-09 23:49 | 38.54383 | -23.58995 | 38484 ft | 484 kts | 245° |
| 2026-04-09 23:50 | 38.51138 | -23.66538 | 38484 ft | 484 kts | 245° |
| 2026-04-09 23:50 | 38.47891 | -23.74067 | 38484 ft | 484 kts | 245° |
| 2026-04-09 23:51 | 38.44641 | -23.81587 | 38490 ft | 483 kts | 244° |
| 2026-04-09 23:51 | 38.41412 | -23.89039 | 38489 ft | 483 kts | 244° |
| 2026-04-09 23:52 | 38.38158 | -23.96533 | 38489 ft | 483 kts | 244° |
| 2026-04-09 23:52 | 38.34901 | -24.04016 | 38490 ft | 483 kts | 244° |
| 2026-04-09 23:53 | 38.31641 | -24.11487 | 38491 ft | 482 kts | 244° |
| 2026-04-09 23:53 | 38.28378 | -24.18948 | 38493 ft | 482 kts | 244° |
| 2026-04-09 23:54 | 38.25105 | -24.26415 | 38495 ft | 482 kts | 244° |
| 2026-04-09 23:54 | 38.21851 | -24.33821 | 38495 ft | 482 kts | 244° |
| 2026-04-09 23:55 | 38.18567 | -24.41277 | 38498 ft | 482 kts | 244° |
| 2026-04-09 23:55 | 38.15290 | -24.48701 | 38496 ft | 481 kts | 244° |
| 2026-04-09 23:56 | 38.12009 | -24.56116 | 38496 ft | 481 kts | 243° |
| 2026-04-09 23:56 | 38.08744 | -24.63477 | 38498 ft | 481 kts | 243° |
| 2026-04-09 23:57 | 38.05457 | -24.70870 | 38499 ft | 481 kts | 243° |
| 2026-04-09 23:57 | 38.02167 | -24.78256 | 38508 ft | 480 kts | 243° |
| 2026-04-09 23:58 | 37.98877 | -24.85622 | 38508 ft | 480 kts | 243° |
| 2026-04-09 23:58 | 37.95582 | -24.92983 | 38508 ft | 480 kts | 243° |
| 2026-04-09 23:59 | 37.92280 | -25.00343 | 38509 ft | 480 kts | 243° |
| 2026-04-09 23:59 | 37.88979 | -25.07687 | 38509 ft | 479 kts | 243° |
| 2026-04-10 00:00 | 37.85673 | -25.15021 | 38510 ft | 479 kts | 243° |
| 2026-04-10 00:00 | 37.82366 | -25.22340 | 38511 ft | 479 kts | 243° |
| 2026-04-10 00:01 | 37.79073 | -25.29615 | 38509 ft | 480 kts | 243° |
| 2026-04-10 00:01 | 37.75755 | -25.36927 | 38509 ft | 479 kts | 243° |
| 2026-04-10 00:02 | 37.72435 | -25.44228 | 38509 ft | 479 kts | 243° |
| 2026-04-10 00:02 | 37.69106 | -25.51532 | 38508 ft | 479 kts | 243° |
| 2026-04-10 00:03 | 37.65773 | -25.58827 | 38509 ft | 479 kts | 243° |
| 2026-04-10 00:03 | 37.62435 | -25.66119 | 38507 ft | 479 kts | 242° |
| 2026-04-10 00:04 | 37.59121 | -25.73340 | 38509 ft | 478 kts | 242° |
| 2026-04-10 00:04 | 37.55779 | -25.80606 | 38510 ft | 478 kts | 242° |
| 2026-04-10 00:05 | 37.52433 | -25.87866 | 38510 ft | 478 kts | 242° |
| 2026-04-10 00:05 | 37.49092 | -25.95101 | 38500 ft | 478 kts | 242° |
| 2026-04-10 00:06 | 37.45747 | -26.02330 | 38513 ft | 477 kts | 241° |
| 2026-04-10 00:06 | 37.42394 | -26.09551 | 38515 ft | 478 kts | 241° |
| 2026-04-10 00:07 | 37.39058 | -26.16723 | 38518 ft | 478 kts | 241° |
| 2026-04-10 00:07 | 37.35697 | -26.23937 | 38519 ft | 478 kts | 241° |
| 2026-04-10 00:08 | 37.32339 | -26.31131 | 38516 ft | 477 kts | 241° |
| 2026-04-10 00:08 | 37.28975 | -26.38314 | 38521 ft | 477 kts | 241° |
| 2026-04-10 00:09 | 37.25610 | -26.45485 | 38526 ft | 476 kts | 241° |
| 2026-04-10 00:09 | 37.22243 | -26.52648 | 38521 ft | 476 kts | 240° |
| 2026-04-10 00:10 | 37.18871 | -26.59806 | 38523 ft | 476 kts | 240° |
| 2026-04-10 00:10 | 37.15503 | -26.66939 | 38521 ft | 476 kts | 240° |
| 2026-04-10 00:11 | 37.12127 | -26.74073 | 38511 ft | 476 kts | 240° |
| 2026-04-10 00:11 | 37.08742 | -26.81210 | 38517 ft | 476 kts | 240° |
| 2026-04-10 00:12 | 37.05376 | -26.88291 | 38525 ft | 475 kts | 240° |
| 2026-04-10 00:12 | 37.01990 | -26.95402 | 38546 ft | 475 kts | 240° |
| 2026-04-10 00:13 | 36.98601 | -27.02503 | 38550 ft | 475 kts | 240° |
| 2026-04-10 00:13 | 36.95203 | -27.09608 | 38545 ft | 475 kts | 240° |
| 2026-04-10 00:14 | 36.91810 | -27.16688 | 38522 ft | 475 kts | 240° |
| 2026-04-10 00:14 | 36.88411 | -27.23766 | 38519 ft | 475 kts | 239° |
| 2026-04-10 00:15 | 36.85029 | -27.30789 | 38512 ft | 475 kts | 240° |
| 2026-04-10 00:15 | 36.79912 | -27.41392 | 38539 ft | 475 kts | 239° |
| 2026-04-10 00:16 | 36.76496 | -27.48451 | 38539 ft | 475 kts | 239° |
| 2026-04-10 00:16 | 36.73079 | -27.55498 | 38538 ft | 475 kts | 239° |
| 2026-04-10 00:17 | 36.70234 | -27.61353 | 38542 ft | 475 kts | 239° |
| 2026-04-10 00:17 | 36.66253 | -27.69529 | 38540 ft | 474 kts | 239° |
| 2026-04-10 00:18 | 36.62822 | -27.76560 | 38543 ft | 475 kts | 239° |
| 2026-04-10 00:18 | 36.59947 | -27.82441 | 38543 ft | 475 kts | 239° |
| 2026-04-10 00:19 | 36.56531 | -27.89415 | 38543 ft | 475 kts | 239° |
| 2026-04-10 00:19 | 36.53082 | -27.96439 | 38545 ft | 475 kts | 239° |
| 2026-04-10 00:20 | 36.49624 | -28.03467 | 38546 ft | 476 kts | 239° |
| 2026-04-10 00:20 | 36.46166 | -28.10482 | 38545 ft | 476 kts | 239° |
| 2026-04-10 00:21 | 36.42707 | -28.17483 | 38547 ft | 476 kts | 239° |
| 2026-04-10 00:21 | 36.39239 | -28.24489 | 38546 ft | 476 kts | 239° |
| 2026-04-10 00:22 | 36.35790 | -28.31443 | 38548 ft | 476 kts | 239° |
| 2026-04-10 00:22 | 36.32293 | -28.38478 | 38548 ft | 476 kts | 239° |
| 2026-04-10 00:23 | 36.28837 | -28.45416 | 38549 ft | 476 kts | 239° |
| 2026-04-10 00:23 | 36.25351 | -28.52400 | 38548 ft | 476 kts | 239° |
| 2026-04-10 00:24 | 36.21867 | -28.59368 | 38549 ft | 476 kts | 239° |
| 2026-04-10 00:24 | 36.18371 | -28.66344 | 38548 ft | 476 kts | 239° |
| 2026-04-10 00:25 | 36.14876 | -28.73302 | 38552 ft | 476 kts | 239° |
| 2026-04-10 00:25 | 36.11373 | -28.80264 | 38551 ft | 477 kts | 239° |
| 2026-04-10 00:26 | 36.07881 | -28.87189 | 38551 ft | 477 kts | 239° |
| 2026-04-10 00:26 | 36.04360 | -28.94156 | 38557 ft | 478 kts | 239° |
| 2026-04-10 00:27 | 36.00837 | -29.01119 | 38555 ft | 477 kts | 238° |
| 2026-04-10 00:27 | 35.97311 | -29.08067 | 38557 ft | 477 kts | 238° |
| 2026-04-10 00:28 | 35.93780 | -29.15012 | 38559 ft | 477 kts | 238° |
| 2026-04-10 00:28 | 35.90266 | -29.21911 | 38560 ft | 477 kts | 238° |
| 2026-04-10 00:29 | 35.86731 | -29.28839 | 38559 ft | 477 kts | 238° |
| 2026-04-10 00:29 | 35.83196 | -29.35749 | 38559 ft | 477 kts | 238° |
| 2026-04-10 00:30 | 35.79654 | -29.42661 | 38562 ft | 476 kts | 238° |
| 2026-04-10 00:30 | 35.76115 | -29.49553 | 38561 ft | 476 kts | 238° |
| 2026-04-10 00:31 | 35.72566 | -29.56453 | 38563 ft | 476 kts | 238° |
| 2026-04-10 00:31 | 35.69016 | -29.63345 | 38562 ft | 476 kts | 237° |
| 2026-04-10 00:32 | 35.65490 | -29.70179 | 38562 ft | 477 kts | 237° |
| 2026-04-10 00:32 | 35.61932 | -29.77063 | 38567 ft | 477 kts | 237° |
| 2026-04-10 00:33 | 35.58372 | -29.83940 | 38564 ft | 477 kts | 237° |
| 2026-04-10 00:33 | 35.54805 | -29.90816 | 38568 ft | 477 kts | 237° |
| 2026-04-10 00:34 | 35.51235 | -29.97682 | 38570 ft | 476 kts | 237° |
| 2026-04-10 00:34 | 35.47877 | -30.04699 | 38569 ft | 476 kts | 244° |
| 2026-04-10 00:35 | 35.45169 | -30.12057 | 38569 ft | 476 kts | 245° |
| 2026-04-10 00:35 | 35.42379 | -30.19492 | 38573 ft | 477 kts | 244° |
| 2026-04-10 00:36 | 35.39550 | -30.26784 | 38573 ft | 477 kts | 244° |
| 2026-04-10 00:36 | 35.36686 | -30.34111 | 38573 ft | 477 kts | 244° |
| 2026-04-10 00:37 | 35.33818 | -30.41431 | 38572 ft | 477 kts | 243° |
| 2026-04-10 00:37 | 35.30944 | -30.48754 | 38573 ft | 477 kts | 243° |
| 2026-04-10 00:38 | 35.28057 | -30.56093 | 38575 ft | 477 kts | 243° |
| 2026-04-10 00:38 | 35.25170 | -30.63408 | 38575 ft | 478 kts | 243° |
| 2026-04-10 00:39 | 35.22277 | -30.70718 | 38575 ft | 478 kts | 243° |
| 2026-04-10 00:39 | 35.19375 | -30.78032 | 38575 ft | 478 kts | 243° |
| 2026-04-10 00:40 | 35.16484 | -30.85303 | 38575 ft | 478 kts | 243° |
| 2026-04-10 00:40 | 35.13573 | -30.92608 | 38575 ft | 478 kts | 243° |
| 2026-04-10 00:41 | 35.10659 | -30.99905 | 38576 ft | 478 kts | 243° |
| 2026-04-10 00:41 | 35.07741 | -31.07197 | 38576 ft | 478 kts | 243° |
| 2026-04-10 00:42 | 35.04813 | -31.14495 | 38576 ft | 479 kts | 243° |
| 2026-04-10 00:42 | 35.01880 | -31.21788 | 38576 ft | 479 kts | 243° |
| 2026-04-10 00:43 | 34.98942 | -31.29081 | 38576 ft | 479 kts | 243° |
| 2026-04-10 00:43 | 34.95999 | -31.36368 | 38575 ft | 479 kts | 243° |
| 2026-04-10 00:44 | 34.93051 | -31.43653 | 38575 ft | 479 kts | 243° |
| 2026-04-10 00:44 | 34.90099 | -31.50931 | 38576 ft | 479 kts | 243° |
| 2026-04-10 00:45 | 34.87140 | -31.58212 | 38578 ft | 479 kts | 242° |
| 2026-04-10 00:45 | 34.84177 | -31.65483 | 38578 ft | 479 kts | 242° |
| 2026-04-10 00:46 | 34.81228 | -31.72707 | 38578 ft | 479 kts | 242° |
| 2026-04-10 00:46 | 34.78258 | -31.79967 | 38579 ft | 479 kts | 242° |
| 2026-04-10 00:47 | 34.75283 | -31.87224 | 38578 ft | 479 kts | 242° |
| 2026-04-10 00:47 | 34.72302 | -31.94476 | 38578 ft | 479 kts | 242° |
| 2026-04-10 00:48 | 34.69318 | -32.01721 | 38581 ft | 479 kts | 242° |
| 2026-04-10 00:48 | 34.66333 | -32.08955 | 38583 ft | 479 kts | 242° |
| 2026-04-10 00:49 | 34.63338 | -32.16197 | 38579 ft | 479 kts | 242° |
| 2026-04-10 00:49 | 34.60359 | -32.23385 | 38579 ft | 479 kts | 242° |
| 2026-04-10 00:50 | 34.57357 | -32.30611 | 38581 ft | 479 kts | 242° |
| 2026-04-10 00:50 | 34.54350 | -32.37836 | 38582 ft | 480 kts | 241° |
| 2026-04-10 00:51 | 34.51337 | -32.45058 | 38578 ft | 480 kts | 241° |
| 2026-04-10 00:51 | 34.48321 | -32.52273 | 38581 ft | 480 kts | 241° |
| 2026-04-10 00:52 | 34.45297 | -32.59493 | 38581 ft | 480 kts | 241° |
| 2026-04-10 00:52 | 34.42271 | -32.66701 | 38583 ft | 480 kts | 241° |
| 2026-04-10 00:53 | 34.39236 | -32.73914 | 38583 ft | 480 kts | 241° |
| 2026-04-10 00:53 | 34.36196 | -32.81124 | 38583 ft | 481 kts | 241° |
| 2026-04-10 00:54 | 34.33154 | -32.88325 | 38580 ft | 481 kts | 241° |
| 2026-04-10 00:54 | 34.30105 | -32.95527 | 38580 ft | 481 kts | 240° |
| 2026-04-10 00:55 | 34.27068 | -33.02684 | 38581 ft | 481 kts | 240° |
| 2026-04-10 00:55 | 34.24007 | -33.09882 | 38577 ft | 481 kts | 240° |
| 2026-04-10 00:56 | 34.20940 | -33.17081 | 38586 ft | 481 kts | 240° |
| 2026-04-10 00:56 | 34.17868 | -33.24277 | 38579 ft | 482 kts | 240° |
| 2026-04-10 00:57 | 34.14787 | -33.31478 | 38580 ft | 482 kts | 240° |
| 2026-04-10 00:57 | 34.11705 | -33.38666 | 38581 ft | 482 kts | 240° |
| 2026-04-10 00:58 | 34.08618 | -33.45850 | 38590 ft | 482 kts | 240° |
| 2026-04-10 00:58 | 34.05529 | -33.53026 | 38594 ft | 482 kts | 240° |
| 2026-04-10 00:59 | 34.02430 | -33.60209 | 38590 ft | 482 kts | 240° |
| 2026-04-10 00:59 | 33.99330 | -33.67381 | 38582 ft | 483 kts | 240° |
| 2026-04-10 01:00 | 33.96236 | -33.74520 | 38567 ft | 483 kts | 240° |
| 2026-04-10 01:00 | 33.93119 | -33.81699 | 38568 ft | 483 kts | 240° |
| 2026-04-10 01:01 | 33.90000 | -33.88869 | 38573 ft | 483 kts | 240° |
| 2026-04-10 01:01 | 33.86868 | -33.96053 | 38592 ft | 483 kts | 240° |
| 2026-04-10 01:02 | 33.83762 | -34.03163 | 38595 ft | 483 kts | 240° |
| 2026-04-10 01:02 | 33.80624 | -34.10332 | 38593 ft | 483 kts | 240° |
| 2026-04-10 01:03 | 33.77485 | -34.17489 | 38570 ft | 484 kts | 240° |
| 2026-04-10 01:03 | 33.74335 | -34.24657 | 38566 ft | 484 kts | 240° |
| 2026-04-10 01:04 | 33.71715 | -34.30605 | 38573 ft | 484 kts | 240° |
| 2026-04-10 01:04 | 33.68048 | -34.38916 | 38576 ft | 485 kts | 240° |
| 2026-04-10 01:05 | 33.64882 | -34.46075 | 38569 ft | 485 kts | 240° |
| 2026-04-10 01:05 | 33.62247 | -34.52022 | 38573 ft | 486 kts | 240° |
| 2026-04-10 01:06 | 33.59069 | -34.59181 | 38578 ft | 486 kts | 240° |
| 2026-04-10 01:06 | 33.55881 | -34.66352 | 38574 ft | 487 kts | 239° |
| 2026-04-10 01:07 | 33.52684 | -34.73522 | 38581 ft | 487 kts | 239° |
| 2026-04-10 01:07 | 33.49483 | -34.80690 | 38570 ft | 488 kts | 239° |
| 2026-04-10 01:08 | 33.46300 | -34.87802 | 38574 ft | 488 kts | 239° |
| 2026-04-10 01:08 | 33.43090 | -34.94963 | 38573 ft | 488 kts | 239° |
| 2026-04-10 01:09 | 33.39868 | -35.02132 | 38569 ft | 488 kts | 239° |
| 2026-04-10 01:09 | 33.36648 | -35.09286 | 38571 ft | 489 kts | 239° |
| 2026-04-10 01:10 | 33.33421 | -35.16440 | 38570 ft | 489 kts | 239° |
| 2026-04-10 01:10 | 33.30187 | -35.23595 | 38570 ft | 489 kts | 239° |
| 2026-04-10 01:11 | 33.26948 | -35.30744 | 38567 ft | 489 kts | 240° |
| 2026-04-10 01:11 | 33.23725 | -35.37847 | 38567 ft | 489 kts | 240° |
| 2026-04-10 01:12 | 33.20476 | -35.44994 | 38567 ft | 489 kts | 239° |
| 2026-04-10 01:12 | 33.17218 | -35.52143 | 38570 ft | 490 kts | 240° |
| 2026-04-10 01:13 | 33.13959 | -35.59278 | 38567 ft | 490 kts | 240° |
| 2026-04-10 01:13 | 33.10694 | -35.66419 | 38567 ft | 489 kts | 240° |
| 2026-04-10 01:14 | 33.07426 | -35.73548 | 38567 ft | 489 kts | 240° |
| 2026-04-10 01:14 | 33.04176 | -35.80621 | 38567 ft | 490 kts | 240° |
| 2026-04-10 01:15 | 33.00893 | -35.87754 | 38568 ft | 490 kts | 240° |
| 2026-04-10 01:15 | 32.97610 | -35.94876 | 38568 ft | 490 kts | 240° |
| 2026-04-10 01:16 | 32.94315 | -36.02007 | 38570 ft | 491 kts | 240° |
| 2026-04-10 01:17 | 32.89382 | -36.12657 | 38564 ft | 491 kts | 240° |
| 2026-04-10 01:17 | 32.86079 | -36.19772 | 38564 ft | 491 kts | 240° |
| 2026-04-10 01:18 | 32.82770 | -36.26885 | 38563 ft | 492 kts | 240° |
| 2026-04-10 01:18 | 32.79449 | -36.34008 | 38564 ft | 492 kts | 240° |
| 2026-04-10 01:19 | 32.76127 | -36.41124 | 38566 ft | 491 kts | 240° |
| 2026-04-10 01:19 | 32.72809 | -36.48213 | 38568 ft | 491 kts | 240° |
| 2026-04-10 01:20 | 32.69513 | -36.55244 | 38561 ft | 491 kts | 240° |
| 2026-04-10 01:20 | 32.66195 | -36.62306 | 38563 ft | 490 kts | 240° |
| 2026-04-10 01:21 | 32.62867 | -36.69378 | 38563 ft | 490 kts | 240° |
| 2026-04-10 01:21 | 32.59540 | -36.76431 | 38555 ft | 490 kts | 241° |
| 2026-04-10 01:22 | 32.56203 | -36.83491 | 38557 ft | 491 kts | 241° |
| 2026-04-10 01:22 | 32.52863 | -36.90549 | 38559 ft | 491 kts | 241° |
| 2026-04-10 01:23 | 32.49512 | -36.97615 | 38555 ft | 491 kts | 241° |
| 2026-04-10 01:23 | 32.46150 | -37.04684 | 38554 ft | 492 kts | 241° |
| 2026-04-10 01:24 | 32.42807 | -37.11707 | 38558 ft | 493 kts | 241° |
| 2026-04-10 01:24 | 32.39434 | -37.18779 | 38557 ft | 493 kts | 241° |
| 2026-04-10 01:25 | 32.36056 | -37.25844 | 38556 ft | 494 kts | 242° |
| 2026-04-10 01:25 | 32.32668 | -37.32918 | 38557 ft | 494 kts | 241° |
| 2026-04-10 01:26 | 32.29273 | -37.39998 | 38555 ft | 494 kts | 241° |
| 2026-04-10 01:26 | 32.25876 | -37.47065 | 38554 ft | 495 kts | 241° |
| 2026-04-10 01:27 | 32.22473 | -37.54129 | 38554 ft | 495 kts | 242° |
| 2026-04-10 01:27 | 32.19064 | -37.61195 | 38554 ft | 495 kts | 242° |
| 2026-04-10 01:28 | 32.15672 | -37.68211 | 38554 ft | 495 kts | 241° |
| 2026-04-10 01:28 | 32.12250 | -37.75273 | 38554 ft | 496 kts | 242° |
| 2026-04-10 01:29 | 32.08823 | -37.82336 | 38553 ft | 496 kts | 242° |
| 2026-04-10 01:29 | 32.05385 | -37.89409 | 38552 ft | 497 kts | 242° |
| 2026-04-10 01:30 | 32.01941 | -37.96477 | 38544 ft | 497 kts | 242° |
| 2026-04-10 01:30 | 31.98492 | -38.03544 | 38552 ft | 498 kts | 242° |
| 2026-04-10 01:31 | 31.95032 | -38.10622 | 38549 ft | 498 kts | 242° |
| 2026-04-10 01:31 | 31.91572 | -38.17684 | 38549 ft | 498 kts | 242° |
| 2026-04-10 01:32 | 31.88123 | -38.24710 | 38546 ft | 499 kts | 242° |
| 2026-04-10 01:32 | 31.84648 | -38.31777 | 38543 ft | 499 kts | 242° |
| 2026-04-10 01:33 | 31.81168 | -38.38841 | 38545 ft | 499 kts | 242° |
| 2026-04-10 01:33 | 31.77680 | -38.45906 | 38548 ft | 499 kts | 242° |
| 2026-04-10 01:34 | 31.74184 | -38.52976 | 38543 ft | 500 kts | 242° |
| 2026-04-10 01:34 | 31.70687 | -38.60036 | 38539 ft | 500 kts | 242° |
| 2026-04-10 01:35 | 31.67182 | -38.67099 | 38534 ft | 500 kts | 242° |
| 2026-04-10 01:35 | 31.63694 | -38.74111 | 38540 ft | 501 kts | 242° |
| 2026-04-10 01:36 | 31.60176 | -38.81174 | 38542 ft | 501 kts | 242° |
| 2026-04-10 01:36 | 31.56655 | -38.88227 | 38541 ft | 501 kts | 242° |
| 2026-04-10 01:37 | 31.53124 | -38.95289 | 38539 ft | 501 kts | 242° |
| 2026-04-10 01:37 | 31.49612 | -39.02300 | 38538 ft | 501 kts | 242° |
| 2026-04-10 01:38 | 31.46075 | -39.09345 | 38536 ft | 501 kts | 242° |
| 2026-04-10 01:38 | 31.42534 | -39.16387 | 38537 ft | 502 kts | 242° |
| 2026-04-10 01:39 | 31.38986 | -39.23430 | 38539 ft | 502 kts | 242° |
| 2026-04-10 01:39 | 31.35428 | -39.30480 | 38538 ft | 502 kts | 242° |
| 2026-04-10 01:40 | 31.31871 | -39.37515 | 38535 ft | 503 kts | 242° |
| 2026-04-10 01:40 | 31.28329 | -39.44509 | 38534 ft | 503 kts | 242° |
| 2026-04-10 01:41 | 31.24756 | -39.51548 | 38534 ft | 503 kts | 242° |
| 2026-04-10 01:41 | 31.21180 | -39.58585 | 38521 ft | 503 kts | 242° |
| 2026-04-10 01:42 | 31.17603 | -39.65614 | 38534 ft | 503 kts | 242° |
| 2026-04-10 01:42 | 31.14026 | -39.72636 | 38529 ft | 503 kts | 242° |
| 2026-04-10 01:43 | 31.10440 | -39.79660 | 38530 ft | 503 kts | 242° |
| 2026-04-10 01:43 | 31.06853 | -39.86674 | 38527 ft | 503 kts | 242° |
| 2026-04-10 01:44 | 31.03265 | -39.93679 | 38523 ft | 503 kts | 242° |
| 2026-04-10 01:44 | 30.99695 | -40.00636 | 38524 ft | 503 kts | 242° |
| 2026-04-10 01:45 | 30.96749 | -40.07978 | 38532 ft | 498 kts | 251° |
| 2026-04-10 01:45 | 30.94144 | -40.15464 | 38528 ft | 499 kts | 250° |
| 2026-04-10 01:46 | 30.91420 | -40.22896 | 38531 ft | 499 kts | 250° |
| 2026-04-10 01:46 | 30.88639 | -40.30312 | 38515 ft | 499 kts | 249° |
| 2026-04-10 01:47 | 30.85847 | -40.37721 | 38537 ft | 499 kts | 249° |
| 2026-04-10 01:47 | 30.83073 | -40.45066 | 38537 ft | 499 kts | 249° |
| 2026-04-10 01:48 | 30.80273 | -40.52467 | 38522 ft | 499 kts | 249° |
| 2026-04-10 01:48 | 30.77470 | -40.59860 | 38519 ft | 499 kts | 249° |
| 2026-04-10 01:49 | 30.74664 | -40.67244 | 38517 ft | 499 kts | 249° |
| 2026-04-10 01:49 | 30.71851 | -40.74633 | 38516 ft | 499 kts | 249° |
| 2026-04-10 01:50 | 30.69037 | -40.82009 | 38514 ft | 499 kts | 249° |
| 2026-04-10 01:50 | 30.66216 | -40.89388 | 38515 ft | 499 kts | 249° |
| 2026-04-10 01:51 | 30.63392 | -40.96759 | 38511 ft | 499 kts | 249° |
| 2026-04-10 01:51 | 30.60565 | -41.04125 | 38512 ft | 499 kts | 249° |
| 2026-04-10 01:52 | 30.57731 | -41.11491 | 38511 ft | 499 kts | 249° |
| 2026-04-10 01:52 | 30.54911 | -41.18807 | 38508 ft | 500 kts | 249° |
| 2026-04-10 01:53 | 30.52070 | -41.26163 | 38509 ft | 499 kts | 249° |
| 2026-04-10 01:53 | 30.49703 | -41.32281 | 38510 ft | 499 kts | 249° |
| 2026-04-10 01:54 | 30.46854 | -41.39630 | 38511 ft | 499 kts | 249° |
| 2026-04-10 01:54 | 30.44001 | -41.46974 | 38509 ft | 499 kts | 249° |
| 2026-04-10 01:55 | 30.41138 | -41.54328 | 38506 ft | 500 kts | 249° |
| 2026-04-10 01:55 | 30.38277 | -41.61665 | 38509 ft | 499 kts | 248° |
| 2026-04-10 01:56 | 30.35415 | -41.68989 | 38508 ft | 499 kts | 248° |
| 2026-04-10 01:56 | 30.32565 | -41.76265 | 38505 ft | 499 kts | 248° |
| 2026-04-10 01:57 | 30.29690 | -41.83595 | 38500 ft | 499 kts | 248° |
| 2026-04-10 01:57 | 30.26817 | -41.90900 | 38502 ft | 499 kts | 248° |
| 2026-04-10 01:58 | 30.23940 | -41.98201 | 38503 ft | 499 kts | 248° |
| 2026-04-10 01:58 | 30.21063 | -42.05492 | 38497 ft | 498 kts | 248° |
| 2026-04-10 01:59 | 30.18180 | -42.12781 | 38494 ft | 498 kts | 248° |
| 2026-04-10 01:59 | 30.15292 | -42.20067 | 38487 ft | 498 kts | 248° |
| 2026-04-10 02:00 | 30.12417 | -42.27309 | 38494 ft | 498 kts | 248° |
| 2026-04-10 02:00 | 30.09522 | -42.34583 | 38497 ft | 498 kts | 248° |
| 2026-04-10 02:01 | 30.06627 | -42.41845 | 38487 ft | 497 kts | 248° |
| 2026-04-10 02:01 | 30.03731 | -42.49097 | 38489 ft | 497 kts | 248° |
| 2026-04-10 02:02 | 30.00853 | -42.56286 | 38489 ft | 497 kts | 248° |
| 2026-04-10 02:02 | 29.97952 | -42.63519 | 38489 ft | 496 kts | 248° |
| 2026-04-10 02:03 | 29.95047 | -42.70750 | 38487 ft | 496 kts | 248° |
| 2026-04-10 02:03 | 29.92140 | -42.77972 | 38481 ft | 496 kts | 248° |
| 2026-04-10 02:04 | 29.89234 | -42.85175 | 38481 ft | 496 kts | 248° |
| 2026-04-10 02:04 | 29.86323 | -42.92380 | 38482 ft | 495 kts | 248° |
| 2026-04-10 02:05 | 29.83414 | -42.99565 | 38481 ft | 495 kts | 247° |
| 2026-04-10 02:05 | 29.80517 | -43.06705 | 38476 ft | 495 kts | 247° |
| 2026-04-10 02:06 | 29.77596 | -43.13891 | 38479 ft | 495 kts | 247° |
| 2026-04-10 02:06 | 29.74670 | -43.21078 | 38479 ft | 495 kts | 247° |
| 2026-04-10 02:07 | 29.71738 | -43.28263 | 38479 ft | 495 kts | 247° |
| 2026-04-10 02:07 | 29.68809 | -43.35428 | 38476 ft | 495 kts | 247° |
| 2026-04-10 02:08 | 29.65877 | -43.42588 | 38475 ft | 495 kts | 247° |
| 2026-04-10 02:08 | 29.62937 | -43.49750 | 38476 ft | 495 kts | 247° |
| 2026-04-10 02:09 | 29.60000 | -43.56896 | 38471 ft | 494 kts | 247° |
| 2026-04-10 02:09 | 29.57078 | -43.63991 | 38470 ft | 494 kts | 247° |
| 2026-04-10 02:10 | 29.54131 | -43.71131 | 38471 ft | 494 kts | 247° |
| 2026-04-10 02:10 | 29.51186 | -43.78255 | 38467 ft | 494 kts | 247° |
| 2026-04-10 02:11 | 29.48237 | -43.85375 | 38465 ft | 493 kts | 247° |
| 2026-04-10 02:11 | 29.45286 | -43.92486 | 38465 ft | 493 kts | 247° |
| 2026-04-10 02:12 | 29.42332 | -43.99591 | 38462 ft | 493 kts | 247° |
| 2026-04-10 02:12 | 29.39377 | -44.06686 | 38458 ft | 493 kts | 247° |
| 2026-04-10 02:13 | 29.36438 | -44.13727 | 38448 ft | 493 kts | 247° |
| 2026-04-10 02:13 | 29.33474 | -44.20817 | 38447 ft | 492 kts | 247° |
| 2026-04-10 02:14 | 29.30514 | -44.27886 | 38468 ft | 492 kts | 247° |
| 2026-04-10 02:14 | 29.27547 | -44.34954 | 38471 ft | 492 kts | 246° |
| 2026-04-10 02:15 | 29.24583 | -44.42005 | 38456 ft | 491 kts | 246° |
| 2026-04-10 02:15 | 29.21631 | -44.49016 | 38441 ft | 491 kts | 246° |
| 2026-04-10 02:16 | 29.18660 | -44.56058 | 38438 ft | 491 kts | 246° |
| 2026-04-10 02:16 | 29.15683 | -44.63100 | 38433 ft | 491 kts | 246° |
| 2026-04-10 02:17 | 29.11219 | -44.73639 | 38448 ft | 491 kts | 246° |
| 2026-04-10 02:17 | 29.08237 | -44.80662 | 38444 ft | 491 kts | 246° |
| 2026-04-10 02:18 | 29.05254 | -44.87682 | 38441 ft | 490 kts | 246° |
| 2026-04-10 02:18 | 29.02266 | -44.94702 | 38441 ft | 490 kts | 246° |
| 2026-04-10 02:19 | 28.99289 | -45.01711 | 38443 ft | 490 kts | 248° |
| 2026-04-10 02:19 | 28.96596 | -45.08847 | 38439 ft | 489 kts | 250° |
| 2026-04-10 02:20 | 28.93980 | -45.15969 | 38431 ft | 489 kts | 250° |
| 2026-04-10 02:20 | 28.91309 | -45.23112 | 38429 ft | 489 kts | 249° |
| 2026-04-10 02:21 | 28.88622 | -45.30249 | 38433 ft | 489 kts | 249° |
| 2026-04-10 02:21 | 28.85928 | -45.37377 | 38431 ft | 489 kts | 249° |
| 2026-04-10 02:22 | 28.83233 | -45.44493 | 38431 ft | 489 kts | 249° |
| 2026-04-10 02:22 | 28.80537 | -45.51598 | 38441 ft | 488 kts | 249° |
| 2026-04-10 02:23 | 28.77848 | -45.58673 | 38418 ft | 488 kts | 249° |
| 2026-04-10 02:23 | 28.75145 | -45.65772 | 38430 ft | 488 kts | 249° |
| 2026-04-10 02:24 | 28.72441 | -45.72856 | 38424 ft | 488 kts | 249° |
| 2026-04-10 02:24 | 28.69731 | -45.79946 | 38425 ft | 487 kts | 249° |
| 2026-04-10 02:25 | 28.67034 | -45.86986 | 38422 ft | 487 kts | 249° |
| 2026-04-10 02:25 | 28.64316 | -45.94071 | 38422 ft | 487 kts | 249° |
| 2026-04-10 02:26 | 28.61599 | -46.01137 | 38419 ft | 487 kts | 249° |
| 2026-04-10 02:26 | 28.58881 | -46.08194 | 38416 ft | 486 kts | 249° |
| 2026-04-10 02:27 | 28.56163 | -46.15238 | 38415 ft | 486 kts | 249° |
| 2026-04-10 02:27 | 28.53442 | -46.22277 | 38417 ft | 486 kts | 249° |
| 2026-04-10 02:28 | 28.50736 | -46.29263 | 38411 ft | 486 kts | 249° |
| 2026-04-10 02:28 | 28.48008 | -46.36293 | 38410 ft | 486 kts | 249° |
| 2026-04-10 02:29 | 28.45277 | -46.43319 | 38409 ft | 485 kts | 249° |
| 2026-04-10 02:29 | 28.42544 | -46.50337 | 38410 ft | 485 kts | 249° |
| 2026-04-10 02:30 | 28.39808 | -46.57349 | 38403 ft | 485 kts | 249° |
| 2026-04-10 02:30 | 28.37070 | -46.64355 | 38407 ft | 485 kts | 249° |
| 2026-04-10 02:31 | 28.34346 | -46.71310 | 38400 ft | 485 kts | 249° |
| 2026-04-10 02:31 | 28.31597 | -46.78316 | 38400 ft | 485 kts | 249° |
| 2026-04-10 02:32 | 28.28851 | -46.85302 | 38399 ft | 485 kts | 249° |
| 2026-04-10 02:32 | 28.26100 | -46.92291 | 38392 ft | 485 kts | 249° |
| 2026-04-10 02:33 | 28.23346 | -46.99275 | 38390 ft | 485 kts | 248° |
| 2026-04-10 02:33 | 28.20587 | -47.06258 | 38392 ft | 485 kts | 249° |
| 2026-04-10 02:34 | 28.17823 | -47.13238 | 38394 ft | 485 kts | 248° |
| 2026-04-10 02:34 | 28.15079 | -47.20157 | 38388 ft | 485 kts | 248° |
| 2026-04-10 02:35 | 28.12312 | -47.27120 | 38390 ft | 484 kts | 248° |
| 2026-04-10 02:35 | 28.09542 | -47.34080 | 38390 ft | 484 kts | 249° |
| 2026-04-10 02:36 | 28.06772 | -47.41031 | 38387 ft | 484 kts | 248° |
| 2026-04-10 02:36 | 28.03996 | -47.47981 | 38381 ft | 484 kts | 248° |
| 2026-04-10 02:37 | 28.01214 | -47.54934 | 38381 ft | 484 kts | 248° |
| 2026-04-10 02:37 | 27.98429 | -47.61881 | 38379 ft | 484 kts | 248° |
| 2026-04-10 02:38 | 27.95646 | -47.68811 | 38376 ft | 484 kts | 248° |
| 2026-04-10 02:38 | 27.92879 | -47.75691 | 38375 ft | 483 kts | 248° |
| 2026-04-10 02:39 | 27.90094 | -47.82603 | 38376 ft | 483 kts | 248° |
| 2026-04-10 02:39 | 27.87301 | -47.89523 | 38376 ft | 483 kts | 248° |
| 2026-04-10 02:40 | 27.84507 | -47.96433 | 38373 ft | 483 kts | 248° |
| 2026-04-10 02:40 | 27.81709 | -48.03339 | 38373 ft | 483 kts | 248° |
| 2026-04-10 02:41 | 27.79380 | -48.09080 | 38371 ft | 483 kts | 248° |
| 2026-04-10 02:41 | 27.76581 | -48.15968 | 38371 ft | 483 kts | 248° |
| 2026-04-10 02:42 | 27.73321 | -48.23973 | 38365 ft | 482 kts | 248° |
| 2026-04-10 02:42 | 27.70971 | -48.29738 | 38365 ft | 482 kts | 248° |
| 2026-04-10 02:43 | 27.68183 | -48.36563 | 38366 ft | 482 kts | 248° |
| 2026-04-10 02:43 | 27.65374 | -48.43427 | 38366 ft | 482 kts | 248° |
| 2026-04-10 02:44 | 27.62559 | -48.50295 | 38360 ft | 481 kts | 248° |
| 2026-04-10 02:44 | 27.59750 | -48.57136 | 38357 ft | 481 kts | 248° |
| 2026-04-10 02:45 | 27.56937 | -48.63976 | 38360 ft | 481 kts | 248° |
| 2026-04-10 02:45 | 27.54117 | -48.70820 | 38354 ft | 480 kts | 247° |
| 2026-04-10 02:46 | 27.51320 | -48.77599 | 38349 ft | 480 kts | 248° |
| 2026-04-10 02:46 | 27.48500 | -48.84420 | 38352 ft | 480 kts | 247° |
| 2026-04-10 02:47 | 27.45672 | -48.91247 | 38349 ft | 480 kts | 247° |
| 2026-04-10 02:47 | 27.42846 | -48.98059 | 38349 ft | 480 kts | 247° |
| 2026-04-10 02:48 | 27.40012 | -49.04880 | 38345 ft | 480 kts | 248° |
| 2026-04-10 02:48 | 27.37197 | -49.11653 | 38344 ft | 480 kts | 248° |
| 2026-04-10 02:49 | 27.34358 | -49.18464 | 38344 ft | 480 kts | 247° |
| 2026-04-10 02:49 | 27.31518 | -49.25267 | 38341 ft | 480 kts | 246° |
| 2026-04-10 02:50 | 27.28671 | -49.32064 | 38339 ft | 480 kts | 246° |
| 2026-04-10 02:50 | 27.25827 | -49.38859 | 38336 ft | 481 kts | 246° |
| 2026-04-10 02:51 | 27.22972 | -49.45662 | 38335 ft | 481 kts | 247° |
| 2026-04-10 02:51 | 27.20112 | -49.52461 | 38334 ft | 481 kts | 247° |
| 2026-04-10 02:52 | 27.17267 | -49.59218 | 38330 ft | 481 kts | 246° |
| 2026-04-10 02:52 | 27.14407 | -49.66009 | 38330 ft | 481 kts | 246° |
| 2026-04-10 02:53 | 27.11538 | -49.72795 | 38327 ft | 481 kts | 246° |
| 2026-04-10 02:53 | 27.08663 | -49.79586 | 38328 ft | 482 kts | 246° |
| 2026-04-10 02:54 | 27.05785 | -49.86382 | 38322 ft | 482 kts | 246° |
| 2026-04-10 02:54 | 27.02908 | -49.93172 | 38327 ft | 482 kts | 246° |
| 2026-04-10 02:55 | 26.99911 | -49.99849 | 38320 ft | 483 kts | 242° |
| 2026-04-10 02:55 | 26.96145 | -50.06117 | 38319 ft | 485 kts | 236° |
| 2026-04-10 02:56 | 26.92221 | -50.12270 | 38319 ft | 485 kts | 236° |
| 2026-04-10 02:56 | 26.88326 | -50.18435 | 38318 ft | 485 kts | 236° |
| 2026-04-10 02:57 | 26.84423 | -50.24613 | 38319 ft | 485 kts | 236° |
| 2026-04-10 02:57 | 26.80536 | -50.30749 | 38316 ft | 486 kts | 236° |
| 2026-04-10 02:58 | 26.76619 | -50.36927 | 38311 ft | 486 kts | 236° |
| 2026-04-10 02:58 | 26.72700 | -50.43097 | 38319 ft | 486 kts | 236° |
| 2026-04-10 02:59 | 26.68775 | -50.49270 | 38314 ft | 487 kts | 236° |
| 2026-04-10 03:00 | 26.62876 | -50.58529 | 38311 ft | 487 kts | 236° |
| 2026-04-10 03:00 | 26.58957 | -50.64664 | 38313 ft | 487 kts | 236° |
| 2026-04-10 03:01 | 26.55009 | -50.70836 | 38302 ft | 488 kts | 235° |
| 2026-04-10 03:01 | 26.51055 | -50.77013 | 38300 ft | 489 kts | 236° |
| 2026-04-10 03:02 | 26.47094 | -50.83190 | 38304 ft | 489 kts | 236° |
| 2026-04-10 03:02 | 26.43123 | -50.89370 | 38303 ft | 489 kts | 235° |
| 2026-04-10 03:03 | 26.39177 | -50.95506 | 38303 ft | 490 kts | 235° |
| 2026-04-10 03:03 | 26.35199 | -51.01682 | 38300 ft | 490 kts | 235° |
| 2026-04-10 03:04 | 26.31211 | -51.07866 | 38297 ft | 491 kts | 235° |
| 2026-04-10 03:04 | 26.27218 | -51.14049 | 38289 ft | 491 kts | 235° |
| 2026-04-10 03:05 | 26.23226 | -51.20226 | 38289 ft | 491 kts | 235° |
| 2026-04-10 03:05 | 26.19220 | -51.26410 | 38291 ft | 492 kts | 235° |
| 2026-04-10 03:06 | 26.15209 | -51.32595 | 38283 ft | 493 kts | 235° |
| 2026-04-10 03:06 | 26.11222 | -51.38736 | 38292 ft | 493 kts | 236° |
| 2026-04-10 03:07 | 26.07208 | -51.44914 | 38291 ft | 493 kts | 235° |
| 2026-04-10 03:07 | 26.03181 | -51.51100 | 38288 ft | 494 kts | 235° |
| 2026-04-10 03:08 | 25.99146 | -51.57290 | 38278 ft | 494 kts | 235° |
| 2026-04-10 03:08 | 25.93084 | -51.66574 | 38283 ft | 494 kts | 235° |
| 2026-04-10 03:09 | 25.89037 | -51.72761 | 38280 ft | 495 kts | 235° |
| 2026-04-10 03:09 | 25.84989 | -51.78943 | 38279 ft | 494 kts | 235° |
| 2026-04-10 03:10 | 25.80963 | -51.85083 | 38271 ft | 495 kts | 235° |
| 2026-04-10 03:10 | 25.76907 | -51.91258 | 38280 ft | 495 kts | 235° |
| 2026-04-10 03:11 | 25.72838 | -51.97447 | 38272 ft | 495 kts | 235° |
| 2026-04-10 03:11 | 25.68769 | -52.03627 | 38266 ft | 496 kts | 235° |
| 2026-04-10 03:12 | 25.64693 | -52.09808 | 38271 ft | 496 kts | 235° |
| 2026-04-10 03:12 | 25.60623 | -52.15971 | 38267 ft | 496 kts | 235° |
| 2026-04-10 03:13 | 25.56548 | -52.22135 | 38271 ft | 495 kts | 235° |
| 2026-04-10 03:13 | 25.52470 | -52.28296 | 38263 ft | 496 kts | 236° |
| 2026-04-10 03:14 | 25.48421 | -52.34404 | 38264 ft | 495 kts | 236° |
| 2026-04-10 03:14 | 25.44339 | -52.40557 | 38261 ft | 495 kts | 236° |
| 2026-04-10 03:15 | 25.40254 | -52.46704 | 38257 ft | 495 kts | 236° |
| 2026-04-10 03:15 | 25.36170 | -52.52843 | 38246 ft | 495 kts | 236° |
| 2026-04-10 03:16 | 25.32090 | -52.58966 | 38263 ft | 495 kts | 236° |
| 2026-04-10 03:16 | 25.27997 | -52.65104 | 38259 ft | 495 kts | 236° |
| 2026-04-10 03:17 | 25.23934 | -52.71187 | 38258 ft | 495 kts | 236° |
| 2026-04-10 03:17 | 25.19843 | -52.77305 | 38256 ft | 495 kts | 236° |
| 2026-04-10 03:18 | 25.15744 | -52.83425 | 38255 ft | 495 kts | 236° |
| 2026-04-10 03:18 | 25.11679 | -52.89488 | 38252 ft | 495 kts | 236° |
| 2026-04-10 03:19 | 25.07585 | -52.95587 | 38248 ft | 495 kts | 236° |
| 2026-04-10 03:19 | 25.03487 | -53.01682 | 38239 ft | 494 kts | 236° |
| 2026-04-10 03:20 | 24.99389 | -53.07770 | 38250 ft | 494 kts | 236° |
| 2026-04-10 03:20 | 24.95289 | -53.13855 | 38248 ft | 494 kts | 236° |
| 2026-04-10 03:21 | 24.91195 | -53.19923 | 38245 ft | 494 kts | 236° |
| 2026-04-10 03:21 | 24.87091 | -53.25996 | 38237 ft | 493 kts | 236° |
| 2026-04-10 03:22 | 24.82993 | -53.32054 | 38244 ft | 493 kts | 236° |
| 2026-04-10 03:22 | 24.78895 | -53.38105 | 38243 ft | 493 kts | 236° |
| 2026-04-10 03:23 | 24.74787 | -53.44162 | 38244 ft | 493 kts | 236° |
| 2026-04-10 03:23 | 24.70706 | -53.50171 | 38240 ft | 493 kts | 236° |
| 2026-04-10 03:24 | 24.66596 | -53.56218 | 38241 ft | 493 kts | 236° |
| 2026-04-10 03:24 | 24.62487 | -53.62253 | 38242 ft | 493 kts | 236° |
| 2026-04-10 03:25 | 24.58374 | -53.68288 | 38236 ft | 493 kts | 236° |
| 2026-04-10 03:25 | 24.54285 | -53.74279 | 38232 ft | 493 kts | 236° |
| 2026-04-10 03:26 | 24.50166 | -53.80308 | 38233 ft | 493 kts | 236° |
| 2026-04-10 03:26 | 24.46043 | -53.86335 | 38233 ft | 493 kts | 236° |
| 2026-04-10 03:27 | 24.41915 | -53.92363 | 38228 ft | 494 kts | 236° |
| 2026-04-10 03:27 | 24.37782 | -53.98389 | 38235 ft | 494 kts | 236° |
| 2026-04-10 03:28 | 24.33645 | -54.04411 | 38247 ft | 494 kts | 237° |
| 2026-04-10 03:28 | 24.29508 | -54.10429 | 38237 ft | 494 kts | 237° |
| 2026-04-10 03:29 | 24.25391 | -54.16411 | 38216 ft | 495 kts | 237° |
| 2026-04-10 03:29 | 24.21241 | -54.22434 | 38211 ft | 495 kts | 237° |
| 2026-04-10 03:30 | 24.17090 | -54.28447 | 38228 ft | 494 kts | 237° |
| 2026-04-10 03:30 | 24.13640 | -54.33440 | 38224 ft | 494 kts | 237° |
| 2026-04-10 03:31 | 24.09485 | -54.39448 | 38227 ft | 494 kts | 237° |
| 2026-04-10 03:31 | 24.05324 | -54.45458 | 38221 ft | 494 kts | 237° |
| 2026-04-10 03:32 | 24.01196 | -54.51411 | 38214 ft | 494 kts | 238° |
| 2026-04-10 03:32 | 23.97038 | -54.57399 | 38216 ft | 493 kts | 238° |
| 2026-04-10 03:33 | 23.92887 | -54.63375 | 38216 ft | 493 kts | 238° |
| 2026-04-10 03:33 | 23.88743 | -54.69334 | 38217 ft | 493 kts | 238° |
| 2026-04-10 03:34 | 23.84591 | -54.75295 | 38197 ft | 492 kts | 238° |
| 2026-04-10 03:34 | 23.80439 | -54.81247 | 38205 ft | 492 kts | 238° |
| 2026-04-10 03:35 | 23.76298 | -54.87178 | 38209 ft | 491 kts | 238° |
| 2026-04-10 03:35 | 23.72154 | -54.93108 | 38208 ft | 491 kts | 238° |
| 2026-04-10 03:36 | 23.68011 | -54.99028 | 38206 ft | 490 kts | 238° |
| 2026-04-10 03:36 | 23.63900 | -55.04895 | 38204 ft | 490 kts | 238° |
| 2026-04-10 03:37 | 23.59759 | -55.10797 | 38200 ft | 489 kts | 238° |
| 2026-04-10 03:37 | 23.55622 | -55.16688 | 38198 ft | 489 kts | 238° |
| 2026-04-10 03:38 | 23.51484 | -55.22573 | 38202 ft | 489 kts | 238° |
| 2026-04-10 03:38 | 23.47342 | -55.28457 | 38196 ft | 488 kts | 238° |
| 2026-04-10 03:39 | 23.43209 | -55.34321 | 38196 ft | 487 kts | 238° |
| 2026-04-10 03:39 | 23.39108 | -55.40133 | 38205 ft | 487 kts | 238° |
| 2026-04-10 03:40 | 23.34978 | -55.45979 | 38201 ft | 487 kts | 238° |
| 2026-04-10 03:40 | 23.30854 | -55.51811 | 38206 ft | 487 kts | 238° |
| 2026-04-10 03:41 | 23.26724 | -55.57645 | 38192 ft | 486 kts | 238° |
| 2026-04-10 03:41 | 23.22603 | -55.63460 | 38183 ft | 485 kts | 238° |
| 2026-04-10 03:42 | 23.18479 | -55.69272 | 38177 ft | 485 kts | 238° |
| 2026-04-10 03:42 | 23.14363 | -55.75067 | 38180 ft | 484 kts | 238° |
| 2026-04-10 03:43 | 23.10250 | -55.80851 | 38201 ft | 483 kts | 237° |
| 2026-04-10 03:43 | 23.06140 | -55.86625 | 38201 ft | 483 kts | 237° |
| 2026-04-10 03:44 | 23.02029 | -55.92393 | 38188 ft | 482 kts | 237° |
| 2026-04-10 03:44 | 22.97927 | -55.98141 | 38186 ft | 482 kts | 237° |
| 2026-04-10 03:45 | 22.93824 | -56.03884 | 38187 ft | 481 kts | 237° |
| 2026-04-10 03:45 | 22.89744 | -56.09589 | 38181 ft | 481 kts | 237° |
| 2026-04-10 03:46 | 22.85636 | -56.15326 | 38184 ft | 481 kts | 237° |
| 2026-04-10 03:46 | 22.81525 | -56.21062 | 38182 ft | 481 kts | 237° |
| 2026-04-10 03:47 | 22.77423 | -56.26779 | 38182 ft | 480 kts | 237° |
| 2026-04-10 03:47 | 22.73315 | -56.32499 | 38176 ft | 480 kts | 237° |
| 2026-04-10 03:48 | 22.69234 | -56.38173 | 38179 ft | 479 kts | 237° |
| 2026-04-10 03:48 | 22.65141 | -56.43858 | 38176 ft | 479 kts | 237° |
| 2026-04-10 03:49 | 22.61040 | -56.49548 | 38176 ft | 478 kts | 237° |
| 2026-04-10 03:49 | 22.56947 | -56.55222 | 38173 ft | 478 kts | 237° |
| 2026-04-10 03:50 | 22.52856 | -56.60888 | 38173 ft | 477 kts | 237° |
| 2026-04-10 03:50 | 22.48763 | -56.66548 | 38173 ft | 477 kts | 237° |
| 2026-04-10 03:51 | 22.44677 | -56.72193 | 38173 ft | 476 kts | 237° |
| 2026-04-10 03:51 | 22.40591 | -56.77831 | 38168 ft | 476 kts | 237° |
| 2026-04-10 03:52 | 22.36502 | -56.83469 | 38169 ft | 476 kts | 237° |
| 2026-04-10 03:52 | 22.32441 | -56.89062 | 38167 ft | 476 kts | 237° |
| 2026-04-10 03:53 | 22.28353 | -56.94686 | 38167 ft | 476 kts | 237° |
| 2026-04-10 03:53 | 22.24263 | -57.00306 | 38167 ft | 476 kts | 237° |
| 2026-04-10 03:54 | 22.20168 | -57.05927 | 38158 ft | 476 kts | 237° |
| 2026-04-10 03:54 | 22.16070 | -57.11547 | 38155 ft | 476 kts | 237° |
| 2026-04-10 03:55 | 22.11971 | -57.17163 | 38160 ft | 477 kts | 236° |
| 2026-04-10 03:55 | 22.07865 | -57.22782 | 38157 ft | 477 kts | 236° |
| 2026-04-10 03:56 | 22.03749 | -57.28408 | 38157 ft | 477 kts | 236° |
| 2026-04-10 03:56 | 21.99661 | -57.33990 | 38142 ft | 477 kts | 237° |
| 2026-04-10 03:57 | 21.95546 | -57.39604 | 38156 ft | 477 kts | 236° |
| 2026-04-10 03:57 | 21.91426 | -57.45218 | 38154 ft | 477 kts | 236° |
| 2026-04-10 03:58 | 21.87307 | -57.50826 | 38154 ft | 477 kts | 236° |
| 2026-04-10 03:58 | 21.83186 | -57.56430 | 38154 ft | 477 kts | 236° |
| 2026-04-10 03:59 | 21.79067 | -57.62025 | 38151 ft | 477 kts | 236° |
| 2026-04-10 03:59 | 21.74946 | -57.67618 | 38151 ft | 476 kts | 236° |
| 2026-04-10 04:00 | 21.70831 | -57.73196 | 38154 ft | 476 kts | 236° |
| 2026-04-10 04:00 | 21.66742 | -57.78735 | 38153 ft | 475 kts | 236° |
| 2026-04-10 04:01 | 21.62623 | -57.84308 | 38148 ft | 475 kts | 236° |
| 2026-04-10 04:01 | 21.58504 | -57.89874 | 38148 ft | 475 kts | 236° |
| 2026-04-10 04:02 | 21.54391 | -57.95427 | 38147 ft | 475 kts | 236° |
| 2026-04-10 04:02 | 21.50280 | -58.00973 | 38147 ft | 474 kts | 236° |
| 2026-04-10 04:03 | 21.46166 | -58.06516 | 38151 ft | 474 kts | 236° |
| 2026-04-10 04:03 | 21.42075 | -58.12023 | 38153 ft | 474 kts | 236° |
| 2026-04-10 04:04 | 21.37959 | -58.17559 | 38152 ft | 474 kts | 236° |
| 2026-04-10 04:04 | 21.33839 | -58.23093 | 38147 ft | 473 kts | 236° |
| 2026-04-10 04:05 | 21.29732 | -58.28605 | 38146 ft | 473 kts | 236° |
| 2026-04-10 04:05 | 21.25614 | -58.34126 | 38145 ft | 473 kts | 236° |
| 2026-04-10 04:06 | 21.21534 | -58.39592 | 38144 ft | 473 kts | 236° |
| 2026-04-10 04:06 | 21.17421 | -58.45095 | 38144 ft | 473 kts | 236° |
| 2026-04-10 04:07 | 21.13307 | -58.50593 | 38121 ft | 472 kts | 236° |
| 2026-04-10 04:07 | 21.09201 | -58.56076 | 38138 ft | 471 kts | 236° |
| 2026-04-10 04:08 | 21.05097 | -58.61553 | 38141 ft | 471 kts | 236° |
| 2026-04-10 04:08 | 21.00992 | -58.67024 | 38139 ft | 471 kts | 236° |
| 2026-04-10 04:09 | 20.96918 | -58.72448 | 38139 ft | 471 kts | 236° |
| 2026-04-10 04:09 | 20.92814 | -58.77908 | 38135 ft | 471 kts | 236° |
| 2026-04-10 04:10 | 20.88710 | -58.83362 | 38134 ft | 470 kts | 236° |
| 2026-04-10 04:10 | 20.84608 | -58.88807 | 38135 ft | 470 kts | 236° |
| 2026-04-10 04:11 | 20.80503 | -58.94252 | 38135 ft | 470 kts | 236° |
| 2026-04-10 04:11 | 20.76399 | -58.99690 | 38134 ft | 470 kts | 236° |
| 2026-04-10 04:12 | 20.72988 | -59.04207 | 38129 ft | 470 kts | 236° |
| 2026-04-10 04:12 | 20.68196 | -59.10544 | 38110 ft | 469 kts | 236° |
| 2026-04-10 04:13 | 20.64105 | -59.15949 | 38117 ft | 468 kts | 236° |
| 2026-04-10 04:13 | 20.60040 | -59.21316 | 38124 ft | 467 kts | 236° |
| 2026-04-10 04:14 | 20.55955 | -59.26703 | 38141 ft | 466 kts | 236° |
| 2026-04-10 04:14 | 20.51868 | -59.32088 | 38140 ft | 466 kts | 236° |
| 2026-04-10 04:15 | 20.47782 | -59.37467 | 38133 ft | 466 kts | 236° |
| 2026-04-10 04:15 | 20.43702 | -59.42830 | 38126 ft | 465 kts | 236° |
| 2026-04-10 04:16 | 20.37626 | -59.50811 | 38124 ft | 464 kts | 236° |
| 2026-04-10 04:17 | 20.33559 | -59.56147 | 38124 ft | 463 kts | 236° |
| 2026-04-10 04:17 | 20.29493 | -59.61479 | 38123 ft | 463 kts | 237° |
| 2026-04-10 04:18 | 20.26123 | -59.65896 | 38127 ft | 462 kts | 237° |
| 2026-04-10 04:18 | 20.22063 | -59.71212 | 38105 ft | 462 kts | 237° |
| 2026-04-10 04:19 | 20.18006 | -59.76518 | 38125 ft | 461 kts | 237° |
| 2026-04-10 04:19 | 20.13959 | -59.81808 | 38122 ft | 460 kts | 237° |
| 2026-04-10 04:20 | 20.09912 | -59.87094 | 38122 ft | 460 kts | 237° |
| 2026-04-10 04:20 | 20.05860 | -59.92381 | 38118 ft | 460 kts | 237° |
| 2026-04-10 04:21 | 20.01617 | -59.97444 | 38117 ft | 466 kts | 229° |
| 2026-04-10 04:21 | 19.96408 | -60.01663 | 38114 ft | 476 kts | 218° |
| 2026-04-10 04:22 | 19.90420 | -60.04839 | 38111 ft | 482 kts | 212° |
| 2026-04-10 04:22 | 19.84367 | -60.07895 | 38111 ft | 481 kts | 212° |
| 2026-04-10 04:23 | 19.78327 | -60.10955 | 38108 ft | 481 kts | 212° |
| 2026-04-10 04:23 | 19.72275 | -60.14014 | 38109 ft | 481 kts | 212° |
| 2026-04-10 04:24 | 19.66264 | -60.17047 | 38106 ft | 481 kts | 212° |
| 2026-04-10 04:24 | 19.60230 | -60.20090 | 38108 ft | 480 kts | 212° |
| 2026-04-10 04:25 | 19.54206 | -60.23124 | 38108 ft | 480 kts | 212° |
| 2026-04-10 04:25 | 19.48176 | -60.26160 | 38102 ft | 479 kts | 212° |
| 2026-04-10 04:26 | 19.42142 | -60.29194 | 38104 ft | 479 kts | 212° |
| 2026-04-10 04:26 | 19.36129 | -60.32216 | 38099 ft | 478 kts | 212° |
| 2026-04-10 04:27 | 19.30155 | -60.35217 | 38100 ft | 478 kts | 212° |
| 2026-04-10 04:27 | 19.24136 | -60.38237 | 38095 ft | 478 kts | 212° |
| 2026-04-10 04:28 | 19.18126 | -60.41250 | 38098 ft | 478 kts | 212° |
| 2026-04-10 04:28 | 19.12107 | -60.44264 | 38105 ft | 478 kts | 212° |
| 2026-04-10 04:29 | 19.06095 | -60.47274 | 38098 ft | 478 kts | 212° |
| 2026-04-10 04:29 | 19.00127 | -60.50258 | 38098 ft | 477 kts | 212° |
| 2026-04-10 04:30 | 18.94135 | -60.53253 | 38095 ft | 477 kts | 212° |
| 2026-04-10 04:30 | 18.88135 | -60.56249 | 38096 ft | 477 kts | 212° |
| 2026-04-10 04:31 | 18.82140 | -60.59241 | 38092 ft | 477 kts | 212° |
| 2026-04-10 04:31 | 18.76144 | -60.62231 | 38093 ft | 477 kts | 212° |
| 2026-04-10 04:32 | 18.70141 | -60.65222 | 38077 ft | 477 kts | 212° |
| 2026-04-10 04:32 | 18.64143 | -60.68207 | 38092 ft | 477 kts | 212° |
| 2026-04-10 04:33 | 18.58144 | -60.71191 | 38088 ft | 476 kts | 213° |
| 2026-04-10 04:33 | 18.52193 | -60.74149 | 38088 ft | 476 kts | 213° |
| 2026-04-10 04:34 | 18.46208 | -60.77122 | 38081 ft | 475 kts | 213° |
| 2026-04-10 04:34 | 18.40229 | -60.80088 | 38081 ft | 475 kts | 213° |
| 2026-04-10 04:35 | 18.34254 | -60.83050 | 38069 ft | 474 kts | 213° |
| 2026-04-10 04:35 | 18.28286 | -60.86007 | 38079 ft | 473 kts | 213° |
| 2026-04-10 04:36 | 18.22324 | -60.88960 | 38078 ft | 473 kts | 213° |
| 2026-04-10 04:36 | 18.16400 | -60.91890 | 38074 ft | 473 kts | 213° |
| 2026-04-10 04:37 | 18.10442 | -60.94836 | 38074 ft | 473 kts | 213° |
| 2026-04-10 04:37 | 18.04488 | -60.97778 | 38069 ft | 472 kts | 214° |
| 2026-04-10 04:38 | 17.99081 | -61.01432 | 38068 ft | 455 kts | 228° |
| 2026-04-10 04:38 | 17.94723 | -61.06127 | 38066 ft | 446 kts | 235° |
| 2026-04-10 04:39 | 17.90586 | -61.10984 | 38074 ft | 446 kts | 235° |
| 2026-04-10 04:39 | 17.86436 | -61.15818 | 38076 ft | 446 kts | 235° |
| 2026-04-10 04:40 | 17.82304 | -61.20628 | 38061 ft | 446 kts | 235° |
| 2026-04-10 04:40 | 17.78155 | -61.25455 | 38067 ft | 445 kts | 235° |
| 2026-04-10 04:41 | 17.73996 | -61.30292 | 38064 ft | 445 kts | 235° |
| 2026-04-10 04:41 | 17.69843 | -61.35117 | 38066 ft | 445 kts | 235° |
| 2026-04-10 04:42 | 17.65718 | -61.39905 | 38064 ft | 445 kts | 234° |
| 2026-04-10 04:42 | 17.61565 | -61.44724 | 38064 ft | 444 kts | 234° |
| 2026-04-10 04:43 | 17.57421 | -61.49528 | 38064 ft | 444 kts | 234° |
| 2026-04-10 04:43 | 17.53275 | -61.54334 | 38059 ft | 444 kts | 234° |
| 2026-04-10 04:44 | 17.49123 | -61.59139 | 38064 ft | 445 kts | 234° |
| 2026-04-10 04:44 | 17.44965 | -61.63949 | 38062 ft | 445 kts | 234° |
| 2026-04-10 04:45 | 17.40820 | -61.68742 | 37762 ft | 451 kts | 234° |
| 2026-04-10 04:45 | 17.38701 | -61.71194 | 37276 ft | 457 kts | 234° |
| 2026-04-10 04:45 | 17.36564 | -61.73676 | 36696 ft | 460 kts | 235° |
| 2026-04-10 04:45 | 17.34741 | -61.76376 | 36013 ft | 450 kts | 246° |
| 2026-04-10 04:46 | 17.33516 | -61.79358 | 35330 ft | 443 kts | 258° |
| 2026-04-10 04:46 | 17.32931 | -61.82510 | 34657 ft | 442 kts | 269° |
| 2026-04-10 04:46 | 17.33005 | -61.85726 | 33994 ft | 443 kts | 280° |
| 2026-04-10 04:46 | 17.33736 | -61.88859 | 33239 ft | 445 kts | 291° |
| 2026-04-10 04:47 | 17.35098 | -61.91780 | 32523 ft | 449 kts | 302° |
| 2026-04-10 04:47 | 17.37044 | -61.94366 | 31816 ft | 458 kts | 313° |
| 2026-04-10 04:47 | 17.39496 | -61.96508 | 31129 ft | 460 kts | 324° |
| 2026-04-10 04:47 | 17.42220 | -61.98245 | 30456 ft | 459 kts | 331° |
| 2026-04-10 04:48 | 17.45211 | -61.99421 | 29750 ft | 461 kts | 342° |
| 2026-04-10 04:48 | 17.48387 | -61.99932 | 28982 ft | 463 kts | 354° |
| 2026-04-10 04:48 | 17.51604 | -61.99751 | 28247 ft | 463 kts | 6° |
| 2026-04-10 04:48 | 17.54714 | -61.98907 | 27534 ft | 462 kts | 15° |
| 2026-04-10 04:49 | 17.57704 | -61.97854 | 26841 ft | 456 kts | 15° |
| 2026-04-10 04:49 | 17.60700 | -61.96805 | 26157 ft | 451 kts | 15° |
| 2026-04-10 04:49 | 17.63668 | -61.95776 | 25482 ft | 446 kts | 15° |
| 2026-04-10 04:49 | 17.66599 | -61.94772 | 24826 ft | 441 kts | 15° |
| 2026-04-10 04:50 | 17.69507 | -61.93786 | 24184 ft | 436 kts | 15° |
| 2026-04-10 04:50 | 17.72382 | -61.92822 | 23522 ft | 432 kts | 15° |
| 2026-04-10 04:50 | 17.75254 | -61.91875 | 22801 ft | 435 kts | 15° |
| 2026-04-10 04:50 | 17.78157 | -61.90931 | 22061 ft | 437 kts | 15° |
| 2026-04-10 04:51 | 17.81072 | -61.89992 | 21349 ft | 438 kts | 15° |
| 2026-04-10 04:51 | 17.83986 | -61.89065 | 20627 ft | 437 kts | 15° |
| 2026-04-10 04:51 | 17.86812 | -61.87902 | 20002 ft | 439 kts | 26° |
| 2026-04-10 04:51 | 17.89336 | -61.86119 | 19624 ft | 436 kts | 38° |
| 2026-04-10 04:52 | 17.91426 | -61.83808 | 19266 ft | 438 kts | 51° |
| 2026-04-10 04:52 | 17.92978 | -61.81063 | 19019 ft | 440 kts | 64° |
| 2026-04-10 04:52 | 17.93913 | -61.78044 | 18833 ft | 442 kts | 76° |
| 2026-04-10 04:52 | 17.94204 | -61.74828 | 18641 ft | 444 kts | 89° |
| 2026-04-10 04:53 | 17.93813 | -61.71607 | 18456 ft | 446 kts | 102° |
| 2026-04-10 04:53 | 17.92739 | -61.68544 | 18362 ft | 450 kts | 114° |
| 2026-04-10 04:53 | 17.91064 | -61.65796 | 18399 ft | 439 kts | 125° |
| 2026-04-10 04:53 | 17.89286 | -61.63287 | 18303 ft | 417 kts | 125° |
| 2026-04-10 04:54 | 17.87580 | -61.60902 | 17885 ft | 402 kts | 125° |
| 2026-04-10 04:54 | 17.85910 | -61.58572 | 17181 ft | 396 kts | 125° |
| 2026-04-10 04:54 | 17.84275 | -61.56259 | 16385 ft | 393 kts | 125° |
| 2026-04-10 04:54 | 17.82587 | -61.54012 | 15609 ft | 392 kts | 132° |
| 2026-04-10 04:55 | 17.80428 | -61.52286 | 14887 ft | 392 kts | 151° |
| 2026-04-10 04:55 | 17.77873 | -61.51344 | 14211 ft | 388 kts | 169° |
| 2026-04-10 04:55 | 17.75227 | -61.51286 | 13495 ft | 384 kts | 188° |
| 2026-04-10 04:55 | 17.72703 | -61.52121 | 12752 ft | 379 kts | 208° |
| 2026-04-10 04:56 | 17.70504 | -61.53591 | 12001 ft | 373 kts | 215° |
| 2026-04-10 04:56 | 17.68360 | -61.55103 | 11293 ft | 369 kts | 215° |
| 2026-04-10 04:56 | 17.66233 | -61.56605 | 10587 ft | 366 kts | 215° |
| 2026-04-10 04:56 | 17.64140 | -61.58097 | 9884 ft | 361 kts | 215° |
| 2026-04-10 04:57 | 17.62073 | -61.59590 | 9133 ft | 358 kts | 215° |
| 2026-04-10 04:57 | 17.60061 | -61.61093 | 8393 ft | 353 kts | 215° |
| 2026-04-10 04:57 | 17.58088 | -61.62604 | 7673 ft | 349 kts | 215° |
| 2026-04-10 04:57 | 17.56154 | -61.64124 | 6952 ft | 344 kts | 214° |
| 2026-04-10 04:58 | 17.54276 | -61.65653 | 6255 ft | 340 kts | 215° |
| 2026-04-10 04:58 | 17.52427 | -61.67160 | 5518 ft | 335 kts | 215° |
| 2026-04-10 04:58 | 17.50626 | -61.68635 | 4807 ft | 330 kts | 215° |
| 2026-04-10 04:58 | 17.48837 | -61.70109 | 4062 ft | 325 kts | 215° |
| 2026-04-10 04:59 | 17.47088 | -61.71567 | 3432 ft | 316 kts | 215° |
| 2026-04-10 04:59 | 17.45451 | -61.72996 | 3158 ft | 295 kts | 219° |
| 2026-04-10 04:59 | 17.44013 | -61.74411 | 3067 ft | 273 kts | 219° |
| 2026-04-10 04:59 | 17.42603 | -61.75767 | 3063 ft | 274 kts | 218° |
| 2026-04-10 05:00 | 17.41172 | -61.77073 | 3063 ft | 273 kts | 216° |
| 2026-04-10 05:00 | 17.39713 | -61.78345 | 3066 ft | 272 kts | 216° |
| 2026-04-10 05:00 | 17.38250 | -61.79602 | 3068 ft | 273 kts | 215° |
| 2026-04-10 05:00 | 17.36781 | -61.80855 | 3067 ft | 271 kts | 215° |
| 2026-04-10 05:01 | 17.35307 | -61.82110 | 3067 ft | 274 kts | 215° |
| 2026-04-10 05:01 | 17.33835 | -61.83360 | 3022 ft | 271 kts | 216° |
| 2026-04-10 05:01 | 17.32384 | -61.84599 | 2768 ft | 268 kts | 216° |
| 2026-04-10 05:01 | 17.30939 | -61.85828 | 2610 ft | 273 kts | 216° |
| 2026-04-10 05:02 | 17.29478 | -61.87069 | 2577 ft | 267 kts | 216° |
| 2026-04-10 05:02 | 17.28028 | -61.88306 | 2557 ft | 272 kts | 216° |
| 2026-04-10 05:02 | 17.26574 | -61.89544 | 2560 ft | 268 kts | 216° |
| 2026-04-10 05:02 | 17.25132 | -61.90775 | 2559 ft | 269 kts | 215° |
| 2026-04-10 05:03 | 17.23670 | -61.92016 | 2559 ft | 270 kts | 216° |
| 2026-04-10 05:03 | 17.22270 | -61.93215 | 2542 ft | 249 kts | 216° |
| 2026-04-10 05:03 | 17.20916 | -61.94371 | 2556 ft | 256 kts | 216° |
| 2026-04-10 05:03 | 17.19548 | -61.95533 | 2551 ft | 253 kts | 215° |
| 2026-04-10 05:04 | 17.18180 | -61.96691 | 2556 ft | 251 kts | 216° |
| 2026-04-10 05:04 | 17.16827 | -61.97841 | 2554 ft | 252 kts | 215° |
| 2026-04-10 05:04 | 17.15455 | -61.99004 | 2554 ft | 254 kts | 216° |
| 2026-04-10 05:04 | 17.14092 | -62.00164 | 2552 ft | 252 kts | 215° |
| 2026-04-10 05:05 | 17.12623 | -62.01136 | 2561 ft | 249 kts | 195° |
| 2026-04-10 05:05 | 17.10956 | -62.01331 | 2551 ft | 238 kts | 166° |
| 2026-04-10 05:05 | 17.09437 | -62.00699 | 2557 ft | 235 kts | 144° |
| 2026-04-10 05:05 | 17.08137 | -61.99742 | 2546 ft | 221 kts | 139° |
| 2026-04-10 05:06 | 17.06928 | -61.98787 | 2551 ft | 220 kts | 139° |
| 2026-04-10 05:06 | 17.06102 | -61.98161 | 2549 ft | 222 kts | 140° |
| 2026-04-10 05:06 | 17.04939 | -61.97152 | 2547 ft | 212 kts | 124° |
| 2026-04-10 05:06 | 17.04405 | -61.95742 | 2550 ft | 211 kts | 93° |
| 2026-04-10 05:07 | 17.04942 | -61.93837 | 2556 ft | 207 kts | 58° |
| 2026-04-10 05:07 | 17.05703 | -61.92677 | 2549 ft | 179 kts | 58° |
| 2026-04-10 05:07 | 17.06363 | -61.91664 | 2514 ft | 163 kts | 60° |
| 2026-04-10 05:07 | 17.06776 | -61.90989 | 2366 ft | 161 kts | 61° |
| 2026-04-10 05:08 | 17.07338 | -61.90008 | 2098 ft | 156 kts | 63° |
| 2026-04-10 05:08 | 17.07870 | -61.89015 | 1960 ft | 154 kts | 62° |
| 2026-04-10 05:08 | 17.08455 | -61.88121 | 2020 ft | 154 kts | 57° |
| 2026-04-10 05:08 | 17.09074 | -61.87221 | 1904 ft | 147 kts | 62° |
| 2026-04-10 05:09 | 17.09530 | -61.86290 | 1591 ft | 140 kts | 66° |
| 2026-04-10 05:09 | 17.10522 | -61.84480 | 2182 ft | 173 kts | 58° |
| 2026-04-10 05:09 | 17.11280 | -61.83361 | 936 ft | 197 kts | 61° |
| 2026-04-10 05:10 | 17.11791 | -61.82148 | 882 ft | 183 kts | 83° |
| 2026-04-10 05:10 | 17.11321 | -61.80832 | 1220 ft | 215 kts | 130° |
| 2026-04-10 05:10 | 17.09985 | -61.80221 | 1351 ft | 211 kts | 174° |
| 2026-04-10 05:10 | 17.08670 | -61.80766 | 1413 ft | 219 kts | 221° |
| 2026-04-10 05:11 | 17.07822 | -61.82129 | 1445 ft | 225 kts | 238° |
| 2026-04-10 05:11 | 17.07072 | -61.83516 | 1758 ft | 217 kts | 238° |
| 2026-04-10 05:11 | 17.06309 | -61.84894 | 2188 ft | 224 kts | 236° |
| 2026-04-10 05:11 | 17.05544 | -61.86331 | 2430 ft | 229 kts | 238° |
| 2026-04-10 05:12 | 17.04849 | -61.87772 | 2496 ft | 217 kts | 244° |
| 2026-04-10 05:12 | 17.04813 | -61.89306 | 2409 ft | 212 kts | 294° |
| 2026-04-10 05:12 | 17.05741 | -61.90295 | 2318 ft | 176 kts | 346° |
| 2026-04-10 05:12 | 17.06883 | -61.90243 | 2366 ft | 164 kts | 31° |
| 2026-04-10 05:13 | 17.07722 | -61.89505 | 2226 ft | 153 kts | 56° |
| 2026-04-10 05:13 | 17.08198 | -61.88526 | 1961 ft | 147 kts | 69° |
| 2026-04-10 05:13 | 17.08702 | -61.87593 | 1927 ft | 153 kts | 58° |
| 2026-04-10 05:13 | 17.09362 | -61.86669 | 1615 ft | 167 kts | 58° |
| 2026-04-10 05:14 | 17.09907 | -61.85638 | 1241 ft | 155 kts | 64° |
| 2026-04-10 05:14 | 17.10455 | -61.84731 | 981 ft | 137 kts | 59° |
| 2026-04-10 05:14 | 17.10926 | -61.83901 | 813 ft | 130 kts | 62° |
| 2026-04-10 05:14 | 17.11402 | -61.83126 | 662 ft | 123 kts | 58° |
| 2026-04-10 05:15 | 17.11851 | -61.82347 | 580 ft | 134 kts | 60° |
| 2026-04-10 05:15 | 17.12357 | -61.81504 | 391 ft | 136 kts | 61° |
| 2026-04-10 05:15 | 17.12845 | -61.80666 | 206 ft | 135 kts | 58° |
| 2026-04-10 05:15 | 17.13348 | -61.79821 | 83 ft | 134 kts | 60° |
| 2026-04-10 05:16 | 17.13542 | -61.79490 | 71 ft | 110 kts | 57° |
| 2026-04-10 05:16 | 17.13796 | -61.79057 | 62 ft | 48 kts | 59° |
| 2026-04-10 05:16 | 17.13956 | -61.78780 | 65 ft | 30 kts | 59° |
| 2026-04-10 05:16 | 17.14012 | -61.78681 | 64 ft | 12 kts | 59° |
| 2026-04-10 05:17 | 17.14081 | -61.78658 | 66 ft | 11 kts | 332° |
| 2026-04-10 05:17 | 17.14103 | -61.78736 | 72 ft | 13 kts | 275° |
| 2026-04-10 05:17 | 17.14106 | -61.78772 | 69 ft | 2 kts | 275° |
| 2026-04-10 05:17 | 17.14108 | -61.78796 | 66 ft | 5 kts | 275° |
| 2026-04-10 05:18 | 17.14103 | -61.78858 | 68 ft | 15 kts | 253° |
| 2026-04-10 05:18 | 17.14087 | -61.78947 | 62 ft | 16 kts | 298° |
| 2026-04-10 05:18 | 17.14118 | -61.78967 | 62 ft | 1 kts | 331° |
| 2026-04-10 05:18 | 17.14127 | -61.78972 | 63 ft | 1 kts | 330° |
| 2026-04-10 05:19 | 17.14130 | -61.78974 | 61 ft | 0 kts | 330° |
| 2026-04-10 05:19 | 17.14131 | -61.78974 | 61 ft | 0 kts | 330° |